Observation data for Aiken on 06/25/2019      Previous  Date  Next       Current Mesonet Observations  Soil Data  Daily Summary Page  Observations in Plain Language
KAI1 250500Z 16010KT 21/18 A3001 RMK A01 T02120180  RH  082%=      5-min Rain = 0
KAI1 250501Z 16009KT 21/18 A3001 RMK A01 T02120179  RH  082%=      5-min Rain = 0
KAI1 250502Z 16008KT 21/18 A3001 RMK A01 T02120179  RH  082%=      5-min Rain = 0
KAI1 250503Z 17009KT 21/18 A3001 RMK A01 T02120179  RH  082%=      5-min Rain = 0
KAI1 250504Z 16008KT 21/18 A3001 RMK A01 T02120180  RH  082%=      5-min Rain = 0
KAI1 250505Z 16008KT 21/18 A3001 RMK A01 T02120181  RH  082%=      5-min Rain = 0
KAI1 250506Z 16008KT 21/18 A3001 RMK A01 T02110181  RH  083%=      5-min Rain = 0
KAI1 250507Z 16008KT 21/18 A3001 RMK A01 T02110181  RH  083%=      5-min Rain = 0
KAI1 250508Z 16008KT 21/18 A3001 RMK A01 T02110181  RH  083%=      5-min Rain = 0
KAI1 250509Z 16008KT 21/18 A3001 RMK A01 T02110181  RH  083%=      5-min Rain = 0
KAI1 250510Z 15008KT 21/18 A3001 RMK A01 T02110181  RH  083%=      5-min Rain = 0
KAI1 250511Z 15008KT 21/18 A3001 RMK A01 T02110180  RH  082%=      5-min Rain = 0
KAI1 250512Z 15008KT 21/18 A3001 RMK A01 T02110180  RH  082%=      5-min Rain = 0
KAI1 250513Z 15008KT 21/18 A3001 RMK A01 T02110180  RH  082%=      5-min Rain = 0
KAI1 250514Z 15008KT 21/18 A30 RMK A01 T02110180  RH  082%=      5-min Rain = 0
KAI1 250515Z 14008KT 21/18 A30 RMK A01 T02110180  RH  082%=      5-min Rain = 0
KAI1 250516Z 14008KT 21/18 A30 RMK A01 T02110180  RH  082%=      5-min Rain = 0
KAI1 250517Z 14008KT 21/18 A30 RMK A01 T02110180  RH  082%=      5-min Rain = 0
KAI1 250518Z 14008KT 21/18 A30 RMK A01 T02110180  RH  082%=      5-min Rain = 0
KAI1 250519Z 14008KT 21/18 A30 RMK A01 T02110181  RH  083%=      5-min Rain = 0
KAI1 250520Z 14008KT 21/18 A30 RMK A01 T02110181  RH  083%=      5-min Rain = 0
KAI1 250521Z 14007KT 21/18 A30 RMK A01 T02110182  RH  083%=      5-min Rain = 0
KAI1 250522Z 15007KT 21/18 A30 RMK A01 T02110181  RH  083%=      5-min Rain = 0
KAI1 250523Z 14007KT 21/18 A30 RMK A01 T02110182  RH  083%=      5-min Rain = 0
KAI1 250524Z 15007KT 21/18 A30 RMK A01 T02110182  RH  084%=      5-min Rain = 0
KAI1 250525Z 15007KT 21/18 A30 RMK A01 T02110182  RH  084%=      5-min Rain = 0
KAI1 250526Z 14008KT 21/18 A30 RMK A01 T02110183  RH  084%=      5-min Rain = 0
KAI1 250527Z 14008KT 21/18 A30 RMK A01 T02120183  RH  083%=      5-min Rain = 0
KAI1 250528Z 15008KT 21/18 A30 RMK A01 T02120183  RH  083%=      5-min Rain = 0
KAI1 250529Z 15008KT 21/18 A30 RMK A01 T02130183  RH  083%=      5-min Rain = 0
KAI1 250530Z 15008KT 21/18 A30 RMK A01 T02130183  RH  083%=      5-min Rain = 0
KAI1 250531Z 15009KT 21/18 A30 RMK A01 T02140183  RH  083%=      5-min Rain = 0
KAI1 250532Z 15009KT 21/18 A30 RMK A01 T02140183  RH  083%=      5-min Rain = 0
KAI1 250533Z 15009KT 22/18 A30 RMK A01 T02150183  RH  082%=      5-min Rain = 0
KAI1 250534Z 15009KT 22/18 A30 RMK A01 T02150183  RH  082%=      5-min Rain = 0
KAI1 250535Z 15009KT 22/18 A30 RMK A01 T02160184  RH  082%=      5-min Rain = 0
KAI1 250536Z 15009KT 22/18 A30 RMK A01 T02170184  RH  081%=      5-min Rain = 0
KAI1 250537Z 15010KT 22/18 A30 RMK A01 T02180184  RH  081%=      5-min Rain = 0
KAI1 250538Z 15011KT 22/18 A30 RMK A01 T02180184  RH  081%=      5-min Rain = 0
KAI1 250539Z 15010KT 22/19 A30 RMK A01 T02190185  RH  081%=      5-min Rain = 0
KAI1 250540Z 15010KT 22/19 A30 RMK A01 T02200185  RH  081%=      5-min Rain = 0
KAI1 250541Z 15011KT 22/19 A30 RMK A01 T02200185  RH  081%=      5-min Rain = 0
KAI1 250542Z 15010KT 22/19 A30 RMK A01 T02200186  RH  081%=      5-min Rain = 0
KAI1 250543Z 15009KT 22/19 A30 RMK A01 T02200186  RH  081%=      5-min Rain = 0
KAI1 250544Z 15010KT 22/19 A2999 RMK A01 T02200187  RH  081%=      5-min Rain = 0
KAI1 250545Z 15010KT 22/19 A2999 RMK A01 T02210188  RH  082%=      5-min Rain = 0
KAI1 250546Z 15010KT 22/19 A2999 RMK A01 T02210188  RH  082%=      5-min Rain = 0
KAI1 250547Z 15011KT 22/19 A2999 RMK A01 T02200188  RH  082%=      5-min Rain = 0
KAI1 250548Z 16011KT 22/19 A2999 RMK A01 T02210189  RH  082%=      5-min Rain = 0
KAI1 250549Z 16010KT 22/19 A2999 RMK A01 T02200189  RH  082%=      5-min Rain = 0
KAI1 250550Z 16011KT 22/19 A2999 RMK A01 T02210190  RH  082%=      5-min Rain = 0
KAI1 250551Z 15011KT 22/19 A2999 RMK A01 T02210191  RH  083%=      5-min Rain = 0
KAI1 250552Z 16011KT 22/19 A2999 RMK A01 T02210191  RH  083%=      5-min Rain = 0
KAI1 250553Z 16011KT 22/19 A2999 RMK A01 T02210192  RH  083%=      5-min Rain = 0
KAI1 250554Z 16012KT 22/19 A2999 RMK A01 T02220192  RH  083%=      5-min Rain = 0
KAI1 250555Z 16010KT 22/19 A2999 RMK A01 T02220192  RH  083%=      5-min Rain = 0
KAI1 250556Z 16011KT 22/19 A2999 RMK A01 T02220192  RH  083%=      5-min Rain = 0
KAI1 250557Z 16010KT 22/19 A2998 RMK A01 T02220192  RH  083%=      5-min Rain = 0
KAI1 250558Z 16010KT 22/19 A2998 RMK A01 T02220193  RH  083%=      5-min Rain = 0
KAI1 250559Z 16011KT 22/19 A2998 RMK A01 T02210192  RH  084%=      5-min Rain = 0
KAI1 250600Z 17012KT 22/19 A2998 RMK A01 T02220193  RH  084%=      5-min Rain = 0
KAI1 250601Z 17013KT 22/19 A2998 RMK A01 T02220194  RH  084%=      5-min Rain = 0
KAI1 250602Z 17012KT 22/19 A2998 RMK A01 T02210194  RH  085%=      5-min Rain = 0
KAI1 250603Z 17012KT 22/20 A2998 RMK A01 T02210195  RH  085%=      5-min Rain = 0
KAI1 250604Z 17012KT 22/20 A2998 RMK A01 T02210196  RH  085%=      5-min Rain = 0
KAI1 250605Z 17012KT 22/20 A2998 RMK A01 T02220196  RH  086%=      5-min Rain = 0
KAI1 250606Z 17012KT 22/20 A2998 RMK A01 T02220197  RH  086%=      5-min Rain = 0
KAI1 250607Z 17012KT 22/20 A2998 RMK A01 T02230198  RH  086%=      5-min Rain = 0
KAI1 250608Z 17014KT 22/20 A2998 RMK A01 T02230200  RH  087%=      5-min Rain = 0
KAI1 250609Z 17015KT 22/20 A2998 RMK A01 T02230202  RH  087%=      5-min Rain = 0
KAI1 250610Z 16015KT 22/20 A2998 RMK A01 T02240203  RH  088%=      5-min Rain = 0
KAI1 250611Z 16012KT 22/20 A2998 RMK A01 T02240203  RH  088%=      5-min Rain = 0
KAI1 250612Z 17013KT 22/20 A2998 RMK A01 T02240204  RH  088%=      5-min Rain = 0
KAI1 250613Z 16015KT 22/21 A2998 RMK A01 T02240205  RH  089%=      5-min Rain = 0
KAI1 250614Z 16014KT 22/21 A2998 RMK A01 T02230205  RH  089%=      5-min Rain = 0
KAI1 250615Z 16011KT 22/21 A2998 RMK A01 T02240205  RH  089%=      5-min Rain = 0
KAI1 250616Z 16011KT 22/21 A2998 RMK A01 T02230205  RH  089%=      5-min Rain = 0
KAI1 250617Z 17011KT 22/21 A2998 RMK A01 T02240206  RH  090%=      5-min Rain = 0
KAI1 250618Z 16012KT 22/21 A2998 RMK A01 T02230206  RH  090%=      5-min Rain = 0
KAI1 250619Z 17013KT 22/21 A2998 RMK A01 T02230207  RH  090%=      5-min Rain = 0
KAI1 250620Z 17013KT 22/21 A2998 RMK A01 T02230207  RH  090%=      5-min Rain = 0
KAI1 250621Z 17011KT 22/21 A2998 RMK A01 T02230207  RH  090%=      5-min Rain = 0
KAI1 250622Z 17013KT 22/21 A2998 RMK A01 T02230206  RH  090%=      5-min Rain = 0
KAI1 250623Z 17012KT 22/21 A2998 RMK A01 T02230207  RH  090%=      5-min Rain = 0
KAI1 250624Z 16011KT 22/21 A2998 RMK A01 T02240207  RH  090%=      5-min Rain = 0
KAI1 250625Z 16012KT 22/21 A2998 RMK A01 T02230206  RH  090%=      5-min Rain = 0
KAI1 250626Z 16011KT 22/21 A2998 RMK A01 T02230207  RH  090%=      5-min Rain = 0
KAI1 250627Z 17011KT 22/21 A2998 RMK A01 T02230207  RH  091%=      5-min Rain = 0
KAI1 250628Z 17011KT 22/21 A2998 RMK A01 T02230207  RH  091%=      5-min Rain = 0
KAI1 250629Z 17009KT 22/21 A2998 RMK A01 T02230207  RH  091%=      5-min Rain = 0
KAI1 250630Z 17010KT 22/21 A2998 RMK A01 T02230207  RH  091%=      5-min Rain = 0
KAI1 250631Z 17009KT 22/21 A2998 RMK A01 T02230207  RH  091%=      5-min Rain = 0
KAI1 250632Z 17009KT 22/21 A2998 RMK A01 T02230206  RH  091%=      5-min Rain = 0
KAI1 250633Z 17009KT 22/21 A2998 RMK A01 T02220206  RH  091%=      5-min Rain = 0
KAI1 250634Z 17010KT 22/21 A2998 RMK A01 T02220206  RH  091%=      5-min Rain = 0
KAI1 250635Z 17010KT 22/21 A2998 RMK A01 T02220206  RH  091%=      5-min Rain = 0
KAI1 250636Z 17009KT 22/21 A2998 RMK A01 T02220206  RH  091%=      5-min Rain = 0
KAI1 250637Z 17011KT 22/21 A2998 RMK A01 T02220206  RH  091%=      5-min Rain = 0
KAI1 250638Z 17010KT 22/21 A2998 RMK A01 T02220206  RH  091%=      5-min Rain = 0
KAI1 250639Z 17010KT 22/21 A2998 RMK A01 T02210206  RH  091%=      5-min Rain = 0
KAI1 250640Z 17010KT 22/21 A2998 RMK A01 T02210206  RH  091%=      5-min Rain = 0
KAI1 250641Z 17012KT 22/21 A2998 RMK A01 T02210206  RH  091%=      5-min Rain = 0
KAI1 250642Z 17011KT 22/21 A2998 RMK A01 T02210205  RH  091%=      5-min Rain = 0
KAI1 250643Z 17011KT 22/21 A2998 RMK A01 T02210205  RH  091%=      5-min Rain = 0
KAI1 250644Z 17009KT 22/21 A2998 RMK A01 T02210205  RH  091%=      5-min Rain = 0
KAI1 250645Z 17011KT 22/21 A2998 RMK A01 T02210205  RH  091%=      5-min Rain = 0
KAI1 250646Z 18010G15KT 22/21 A2998 RMK A01 T02210205  RH  091%=      5-min Rain = 0
KAI1 250647Z 18013KT 22/21 A2998 RMK A01 T02210205  RH  090%=      5-min Rain = 0
KAI1 250648Z 18015KT 22/20 A2998 RMK A01 T02210203  RH  090%=      5-min Rain = 0
KAI1 250649Z 18012KT 22/20 A2998 RMK A01 T02210202  RH  089%=      5-min Rain = 0
KAI1 250650Z 18011KT 22/20 A2998 RMK A01 T02210202  RH  089%=      5-min Rain = 0
KAI1 250651Z 18014KT 22/20 A2998 RMK A01 T02210201  RH  088%=      5-min Rain = 0
KAI1 250652Z 18013KT 22/20 A2998 RMK A01 T02210199  RH  087%=      5-min Rain = 0
KAI1 250653Z 18012KT 22/20 A2998 RMK A01 T02210199  RH  087%=      5-min Rain = 0
KAI1 250654Z 18014KT 22/20 A2998 RMK A01 T02210198  RH  087%=      5-min Rain = 0
KAI1 250655Z 18011KT 22/20 A2998 RMK A01 T02210197  RH  086%=      5-min Rain = 0
KAI1 250656Z 18012KT 22/20 A2998 RMK A01 T02210197  RH  086%=      5-min Rain = 0
KAI1 250657Z 18012KT 22/20 A2998 RMK A01 T02210197  RH  086%=      5-min Rain = 0
KAI1 250658Z 19011KT 22/20 A2998 RMK A01 T02210196  RH  086%=      5-min Rain = 0
KAI1 250659Z 18011KT 22/20 A2998 RMK A01 T02210196  RH  086%=      5-min Rain = 0
KAI1 250700Z 19011KT 22/20 A2998 RMK A01 T02200196  RH  086%=      5-min Rain = 0
KAI1 250701Z 19011KT 22/20 A2998 RMK A01 T02200195  RH  086%=      5-min Rain = 0
KAI1 250702Z 19012KT 22/20 A2998 RMK A01 T02200195  RH  086%=      5-min Rain = 0
KAI1 250703Z 18013KT 22/19 A2998 RMK A01 T02190194  RH  085%=      5-min Rain = 0
KAI1 250704Z 18011KT 22/19 A2998 RMK A01 T02190193  RH  085%=      5-min Rain = 0
KAI1 250705Z 18011KT 22/19 A2998 RMK A01 T02200194  RH  085%=      5-min Rain = 0
KAI1 250706Z 18010KT 22/19 A2998 RMK A01 T02190194  RH  085%=      5-min Rain = 0
KAI1 250707Z 19009KT 22/19 A2998 RMK A01 T02190194  RH  085%=      5-min Rain = 0
KAI1 250708Z 18009KT 22/19 A2998 RMK A01 T02190193  RH  086%=      5-min Rain = 0
KAI1 250709Z 18009KT 22/19 A2998 RMK A01 T02180193  RH  086%=      5-min Rain = 0
KAI1 250710Z 18010KT 22/19 A2998 RMK A01 T02180193  RH  086%=      5-min Rain = 0
KAI1 250711Z 18009KT 22/19 A2998 RMK A01 T02180193  RH  086%=      5-min Rain = 0
KAI1 250712Z 18009KT 22/19 A2998 RMK A01 T02170192  RH  086%=      5-min Rain = 0
KAI1 250713Z 18009KT 22/19 A2998 RMK A01 T02170192  RH  086%=      5-min Rain = 0
KAI1 250714Z 19008KT 22/19 A2998 RMK A01 T02170192  RH  085%=      5-min Rain = 0
KAI1 250715Z 18009KT 22/19 A2998 RMK A01 T02160191  RH  086%=      5-min Rain = 0
KAI1 250716Z 19008KT 22/19 A2998 RMK A01 T02160191  RH  086%=      5-min Rain = 0
KAI1 250717Z 19009KT 22/19 A2998 RMK A01 T02150191  RH  086%=      5-min Rain = 0
KAI1 250718Z 20009KT 22/19 A2998 RMK A01 T02150190  RH  086%=      5-min Rain = 0
KAI1 250719Z 19009KT 21/19 A2998 RMK A01 T02140190  RH  086%=      5-min Rain = 0
KAI1 250720Z 19011KT 21/18 A2998 RMK A01 T02140183  RH  083%=      5-min Rain = 0
KAI1 250721Z 19010KT 21/18 A2998 RMK A01 T02140178  RH  080%=      5-min Rain = 0
KAI1 250722Z 19010KT 21/18 A2998 RMK A01 T02140178  RH  080%=      5-min Rain = 0
KAI1 250723Z 19009KT 21/18 A2998 RMK A01 T02140176  RH  079%=      5-min Rain = 0
KAI1 250724Z 19011KT 21/17 A2998 RMK A01 T02130173  RH  078%=      5-min Rain = 0
KAI1 250725Z 19011KT 21/17 A2998 RMK A01 T02130169  RH  076%=      5-min Rain = 0
KAI1 250726Z 19011KT 21/17 A2998 RMK A01 T02130168  RH  076%=      5-min Rain = 0
KAI1 250727Z 19011KT 21/17 A2998 RMK A01 T02120167  RH  075%=      5-min Rain = 0
KAI1 250728Z 19010KT 21/17 A2998 RMK A01 T02120167  RH  075%=      5-min Rain = 0
KAI1 250729Z 19010KT 21/17 A2998 RMK A01 T02110167  RH  076%=      5-min Rain = 0
KAI1 250730Z 19010KT 21/17 A2998 RMK A01 T02100166  RH  076%=      5-min Rain = 0
KAI1 250731Z 19011KT 21/17 A2998 RMK A01 T02100165  RH  075%=      5-min Rain = 0
KAI1 250732Z 19010KT 21/17 A2998 RMK A01 T02100165  RH  075%=      5-min Rain = 0
KAI1 250733Z 19010KT 21/17 A2998 RMK A01 T02100165  RH  075%=      5-min Rain = 0
KAI1 250734Z 19010KT 21/16 A2998 RMK A01 T02090164  RH  076%=      5-min Rain = 0
KAI1 250735Z 19010KT 21/16 A2998 RMK A01 T02090164  RH  075%=      5-min Rain = 0
KAI1 250736Z 19010KT 21/16 A2998 RMK A01 T02080163  RH  075%=      5-min Rain = 0
KAI1 250737Z 19010KT 21/16 A2998 RMK A01 T02080162  RH  075%=      5-min Rain = 0
KAI1 250738Z 19010KT 21/16 A2998 RMK A01 T02070162  RH  075%=      5-min Rain = 0
KAI1 250739Z 20009KT 21/16 A2998 RMK A01 T02070162  RH  075%=      5-min Rain = 0
KAI1 250740Z 19010KT 21/16 A2998 RMK A01 T02050161  RH  076%=      5-min Rain = 0
KAI1 250741Z 20010KT 21/16 A2998 RMK A01 T02050161  RH  076%=      5-min Rain = 0
KAI1 250742Z 20009KT 21/16 A2998 RMK A01 T02050160  RH  075%=      5-min Rain = 0
KAI1 250743Z 19013KT 21/16 A2998 RMK A01 T02050157  RH  074%=      5-min Rain = 0
KAI1 250744Z 19012KT 21/16 A2998 RMK A01 T02070155  RH  072%=      5-min Rain = 0
KAI1 250745Z 20010KT 21/16 A2998 RMK A01 T02080155  RH  072%=      5-min Rain = 0
KAI1 250746Z 19011KT 21/16 A2998 RMK A01 T02080156  RH  072%=      5-min Rain = 0
KAI1 250747Z 19012KT 21/16 A2998 RMK A01 T02070155  RH  072%=      5-min Rain = 0
KAI1 250748Z 19013KT 21/15 A2998 RMK A01 T02060154  RH  072%=      5-min Rain = 0
KAI1 250749Z 20011KT 21/15 A2998 RMK A01 T02060152  RH  071%=      5-min Rain = 0
KAI1 250750Z 20010KT 21/15 A2998 RMK A01 T02060153  RH  072%=      5-min Rain = 0
KAI1 250751Z 19010KT 21/15 A2998 RMK A01 T02050153  RH  072%=      5-min Rain = 0
KAI1 250752Z 20010KT 20/15 A2998 RMK A01 T02040153  RH  072%=      5-min Rain = 0
KAI1 250753Z 20011KT 20/15 A2998 RMK A01 T02040152  RH  072%=      5-min Rain = 0
KAI1 250754Z 19011KT 20/15 A2998 RMK A01 T02040151  RH  072%=      5-min Rain = 0
KAI1 250755Z 19011KT 20/15 A2998 RMK A01 T02040151  RH  072%=      5-min Rain = 0
KAI1 250756Z 19012KT 20/15 A2998 RMK A01 T02030151  RH  072%=      5-min Rain = 0
KAI1 250757Z 19012KT 20/15 A2998 RMK A01 T02030150  RH  071%=      5-min Rain = 0
KAI1 250758Z 19011KT 20/15 A2998 RMK A01 T02030150  RH  071%=      5-min Rain = 0
KAI1 250759Z 19011KT 20/15 A2998 RMK A01 T02030150  RH  071%=      5-min Rain = 0
KAI1 250800Z 19011KT 20/15 A2998 RMK A01 T02030150  RH  072%=      5-min Rain = 0
KAI1 250801Z 19011KT 20/15 A2998 RMK A01 T02010150  RH  072%=      5-min Rain = 0
KAI1 250802Z 19010KT 20/15 A2998 RMK A01 T02010150  RH  073%=      5-min Rain = 0
KAI1 250803Z 20011KT 20/15 A2998 RMK A01 T02000150  RH  073%=      5-min Rain = 0
KAI1 250804Z 20010KT 20/15 A2998 RMK A01 T01990150  RH  073%=      5-min Rain = 0
KAI1 250805Z 20009KT 20/15 A2998 RMK A01 T01980150  RH  074%=      5-min Rain = 0
KAI1 250806Z 20009KT 20/15 A2998 RMK A01 T01980150  RH  074%=      5-min Rain = 0
KAI1 250807Z 20009KT 20/15 A2998 RMK A01 T01970150  RH  074%=      5-min Rain = 0
KAI1 250808Z 20009KT 20/15 A2998 RMK A01 T01960151  RH  075%=      5-min Rain = 0
KAI1 250809Z 20009KT 20/15 A2998 RMK A01 T01950151  RH  075%=      5-min Rain = 0
KAI1 250810Z 20009KT 20/15 A2998 RMK A01 T01950151  RH  076%=      5-min Rain = 0
KAI1 250811Z 21008KT 19/15 A2998 RMK A01 T01940151  RH  076%=      5-min Rain = 0
KAI1 250812Z 20008KT 19/15 A2998 RMK A01 T01930151  RH  077%=      5-min Rain = 0
KAI1 250813Z 21009KT 19/15 A2998 RMK A01 T01920151  RH  077%=      5-min Rain = 0
KAI1 250814Z 21008KT 19/15 A2998 RMK A01 T01910151  RH  077%=      5-min Rain = 0
KAI1 250815Z 21009KT 19/15 A2998 RMK A01 T01910151  RH  078%=      5-min Rain = 0
KAI1 250816Z 20008KT 19/15 A2998 RMK A01 T01900151  RH  078%=      5-min Rain = 0
KAI1 250817Z 21008KT 19/15 A2999 RMK A01 T01900151  RH  078%=      5-min Rain = 0
KAI1 250818Z 20008KT 19/15 A2999 RMK A01 T01890151  RH  078%=      5-min Rain = 0
KAI1 250819Z 20008KT 19/15 A2999 RMK A01 T01890151  RH  078%=      5-min Rain = 0
KAI1 250820Z 20008KT 19/15 A2999 RMK A01 T01890150  RH  078%=      5-min Rain = 0
KAI1 250821Z 20008KT 19/15 A2999 RMK A01 T01890150  RH  078%=      5-min Rain = 0
KAI1 250822Z 20008KT 19/15 A2998 RMK A01 T01890150  RH  078%=      5-min Rain = 0
KAI1 250823Z 20008KT 19/15 A2998 RMK A01 T01890150  RH  078%=      5-min Rain = 0
KAI1 250824Z 20007KT 19/15 A2998 RMK A01 T01890150  RH  078%=      5-min Rain = 0
KAI1 250825Z 20008KT 19/15 A2998 RMK A01 T01890150  RH  078%=      5-min Rain = 0
KAI1 250826Z 20007KT 19/15 A2998 RMK A01 T01880150  RH  078%=      5-min Rain = 0
KAI1 250827Z 20007KT 19/15 A2998 RMK A01 T01870150  RH  079%=      5-min Rain = 0
KAI1 250828Z 20007KT 19/15 A2998 RMK A01 T01870149  RH  079%=      5-min Rain = 0
KAI1 250829Z 20007KT 19/15 A2998 RMK A01 T01870149  RH  079%=      5-min Rain = 0
KAI1 250830Z 20006KT 19/15 A2998 RMK A01 T01870150  RH  079%=      5-min Rain = 0
KAI1 250831Z 20006KT 19/15 A2998 RMK A01 T01870150  RH  079%=      5-min Rain = 0
KAI1 250832Z 20006KT 19/15 A2998 RMK A01 T01870150  RH  079%=      5-min Rain = 0
KAI1 250833Z 20006KT 19/15 A2998 RMK A01 T01860149  RH  079%=      5-min Rain = 0
KAI1 250834Z 20006KT 19/15 A2998 RMK A01 T01850149  RH  079%=      5-min Rain = 0
KAI1 250835Z 20006KT 19/15 A2998 RMK A01 T01850149  RH  079%=      5-min Rain = 0
KAI1 250836Z 20006KT 18/15 A2998 RMK A01 T01840148  RH  080%=      5-min Rain = 0
KAI1 250837Z 20006KT 18/15 A2998 RMK A01 T01840148  RH  080%=      5-min Rain = 0
KAI1 250838Z 20006KT 18/15 A2998 RMK A01 T01830148  RH  080%=      5-min Rain = 0
KAI1 250839Z 20006KT 18/15 A2998 RMK A01 T01830148  RH  080%=      5-min Rain = 0
KAI1 250840Z 20006KT 18/15 A2998 RMK A01 T01830148  RH  080%=      5-min Rain = 0
KAI1 250841Z 20006KT 18/15 A2998 RMK A01 T01830148  RH  080%=      5-min Rain = 0
KAI1 250842Z 20006KT 18/15 A2998 RMK A01 T01830149  RH  080%=      5-min Rain = 0
KAI1 250843Z 20006KT 18/15 A2998 RMK A01 T01830148  RH  080%=      5-min Rain = 0
KAI1 250844Z 20006KT 18/15 A2998 RMK A01 T01830149  RH  080%=      5-min Rain = 0
KAI1 250845Z 20006KT 18/15 A2998 RMK A01 T01830148  RH  080%=      5-min Rain = 0
KAI1 250846Z 20005KT 18/15 A2998 RMK A01 T01830148  RH  080%=      5-min Rain = 0
KAI1 250847Z 20005KT 18/15 A2998 RMK A01 T01820147  RH  080%=      5-min Rain = 0
KAI1 250848Z 20005KT 18/15 A2998 RMK A01 T01810147  RH  081%=      5-min Rain = 0
KAI1 250849Z 21005KT 18/15 A2998 RMK A01 T01800147  RH  081%=      5-min Rain = 0
KAI1 250850Z 21004KT 18/15 A2998 RMK A01 T01790146  RH  081%=      5-min Rain = 0
KAI1 250851Z 20004KT 18/15 A2998 RMK A01 T01770146  RH  082%=      5-min Rain = 0
KAI1 250852Z 20004KT 18/15 A2998 RMK A01 T01760146  RH  082%=      5-min Rain = 0
KAI1 250853Z 20004KT 18/15 A2998 RMK A01 T01750146  RH  083%=      5-min Rain = 0
KAI1 250854Z 20004KT 18/15 A2998 RMK A01 T01750146  RH  083%=      5-min Rain = 0
KAI1 250855Z 20004KT 18/15 A2998 RMK A01 T01750146  RH  083%=      5-min Rain = 0
KAI1 250856Z 20004KT 18/15 A2998 RMK A01 T01750146  RH  083%=      5-min Rain = 0
KAI1 250857Z 20005KT 18/15 A2998 RMK A01 T01760147  RH  083%=      5-min Rain = 0
KAI1 250858Z 20005KT 18/15 A2998 RMK A01 T01770147  RH  083%=      5-min Rain = 0
KAI1 250859Z 20004KT 18/15 A2998 RMK A01 T01770147  RH  082%=      5-min Rain = 0
KAI1 250900Z 19004KT 18/15 A2998 RMK A01 T01780147  RH  082%=      5-min Rain = 0
KAI1 250901Z 20004KT 18/15 A2998 RMK A01 T01790146  RH  081%=      5-min Rain = 0
KAI1 250902Z 19003KT 18/15 A2998 RMK A01 T01790146  RH  081%=      5-min Rain = 0
KAI1 250903Z 19002KT 18/15 A2998 RMK A01 T01790145  RH  081%=      5-min Rain = 0
KAI1 250904Z 18002KT 18/15 A2998 RMK A01 T01790146  RH  081%=      5-min Rain = 0
KAI1 250905Z 18002KT 18/15 A2998 RMK A01 T01790146  RH  081%=      5-min Rain = 0
KAI1 250906Z 17002KT 18/15 A2998 RMK A01 T01790145  RH  081%=      5-min Rain = 0
KAI1 250907Z 17002KT 18/14 A2998 RMK A01 T01770143  RH  081%=      5-min Rain = 0
KAI1 250908Z 15001KT 17/14 A2998 RMK A01 T01740142  RH  081%=      5-min Rain = 0
KAI1 250909Z 09001KT 17/14 A2998 RMK A01 T01730142  RH  082%=      5-min Rain = 0
KAI1 250910Z 10001KT 17/14 A2998 RMK A01 T01710143  RH  083%=      5-min Rain = 0
KAI1 250911Z 10001KT 17/14 A2998 RMK A01 T01710143  RH  084%=      5-min Rain = 0
KAI1 250912Z 10001KT 17/14 A2998 RMK A01 T01700142  RH  084%=      5-min Rain = 0
KAI1 250913Z 09001KT 17/14 A2998 RMK A01 T01690142  RH  084%=      5-min Rain = 0
KAI1 250914Z 10002KT 17/14 A2998 RMK A01 T01670143  RH  086%=      5-min Rain = 0
KAI1 250915Z 10002KT 17/14 A2998 RMK A01 T01660144  RH  086%=      5-min Rain = 0
KAI1 250916Z 10002KT 17/14 A2998 RMK A01 T01650143  RH  087%=      5-min Rain = 0
KAI1 250917Z 11002KT 17/14 A2998 RMK A01 T01650144  RH  087%=      5-min Rain = 0
KAI1 250918Z 11001KT 16/14 A2998 RMK A01 T01640144  RH  088%=      5-min Rain = 0
KAI1 250919Z 11002KT 16/14 A2998 RMK A01 T01640144  RH  088%=      5-min Rain = 0
KAI1 250920Z 10002KT 16/14 A2998 RMK A01 T01630144  RH  088%=      5-min Rain = 0
KAI1 250921Z 11001KT 16/14 A2998 RMK A01 T01630144  RH  089%=      5-min Rain = 0
KAI1 250922Z 11001KT 16/14 A2998 RMK A01 T01620144  RH  089%=      5-min Rain = 0
KAI1 250923Z 12002KT 16/14 A2998 RMK A01 T01620144  RH  089%=      5-min Rain = 0
KAI1 250924Z 11002KT 16/14 A2998 RMK A01 T01620144  RH  089%=      5-min Rain = 0
KAI1 250925Z 10002KT 16/14 A2998 RMK A01 T01620144  RH  089%=      5-min Rain = 0
KAI1 250926Z 10002KT 16/14 A2998 RMK A01 T01620144  RH  089%=      5-min Rain = 0
KAI1 250927Z 10003KT 16/14 A2998 RMK A01 T01620144  RH  089%=      5-min Rain = 0
KAI1 250928Z 10003KT 16/14 A2998 RMK A01 T01620144  RH  089%=      5-min Rain = 0
KAI1 250929Z 10004KT 16/14 A2998 RMK A01 T01620144  RH  089%=      5-min Rain = 0
KAI1 250930Z 10005KT 16/14 A2998 RMK A01 T01620144  RH  089%=      5-min Rain = 0
KAI1 250931Z 11005KT 16/14 A2998 RMK A01 T01620143  RH  088%=      5-min Rain = 0
KAI1 250932Z 11005KT 16/14 A2998 RMK A01 T01630144  RH  089%=      5-min Rain = 0
KAI1 250933Z 11005KT 16/15 A2998 RMK A01 T01640146  RH  089%=      5-min Rain = 0
KAI1 250934Z 11005KT 17/15 A2999 RMK A01 T01650147  RH  089%=      5-min Rain = 0
KAI1 250935Z 11004KT 17/15 A2999 RMK A01 T01670148  RH  089%=      5-min Rain = 0
KAI1 250936Z 11004KT 17/15 A2999 RMK A01 T01670148  RH  088%=      5-min Rain = 0
KAI1 250937Z 10004KT 17/15 A2999 RMK A01 T01680148  RH  088%=      5-min Rain = 0
KAI1 250938Z 10003KT 17/15 A2999 RMK A01 T01680148  RH  088%=      5-min Rain = 0
KAI1 250939Z 10002KT 17/15 A2999 RMK A01 T01680145  RH  086%=      5-min Rain = 0
KAI1 250940Z 10002KT 17/14 A2999 RMK A01 T01670142  RH  085%=      5-min Rain = 0
KAI1 250941Z 10002KT 17/14 A2999 RMK A01 T01650141  RH  086%=      5-min Rain = 0
KAI1 250942Z 10001KT 16/14 A2999 RMK A01 T01640141  RH  087%=      5-min Rain = 0
KAI1 250943Z 09001KT 16/14 A2999 RMK A01 T01630142  RH  087%=      5-min Rain = 0
KAI1 250944Z 09001KT 16/14 A2999 RMK A01 T01620143  RH  088%=      5-min Rain = 0
KAI1 250945Z 09001KT 16/14 A2999 RMK A01 T01620143  RH  088%=      5-min Rain = 0
KAI1 250946Z 09001KT 16/14 A2999 RMK A01 T01620142  RH  088%=      5-min Rain = 0
KAI1 250947Z 08001KT 16/14 A2999 RMK A01 T01620142  RH  088%=      5-min Rain = 0
KAI1 250948Z 08002KT 16/14 A2999 RMK A01 T01620142  RH  088%=      5-min Rain = 0
KAI1 250949Z 09001KT 16/14 A2999 RMK A01 T01620143  RH  088%=      5-min Rain = 0
KAI1 250950Z 09002KT 16/14 A2999 RMK A01 T01620142  RH  088%=      5-min Rain = 0
KAI1 250951Z 09002KT 16/14 A2999 RMK A01 T01620142  RH  088%=      5-min Rain = 0
KAI1 250952Z 10002KT 16/14 A2999 RMK A01 T01630142  RH  088%=      5-min Rain = 0
KAI1 250953Z 09002KT 16/14 A2999 RMK A01 T01630142  RH  087%=      5-min Rain = 0
KAI1 250954Z 09002KT 16/14 A2999 RMK A01 T01630141  RH  087%=      5-min Rain = 0
KAI1 250955Z 09001KT 16/14 A2999 RMK A01 T01620140  RH  087%=      5-min Rain = 0
KAI1 250956Z 10001KT 16/14 A2999 RMK A01 T01610139  RH  087%=      5-min Rain = 0
KAI1 250957Z 11001KT 16/14 A2999 RMK A01 T01600140  RH  088%=      5-min Rain = 0
KAI1 250958Z 12001KT 16/14 A2999 RMK A01 T01600138  RH  087%=      5-min Rain = 0
KAI1 250959Z 13000KT 16/14 A2999 RMK A01 T01590138  RH  087%=      5-min Rain = 0
KAI1 251000Z 15000KT 16/14 A30 RMK A01 T01580139  RH  088%=      5-min Rain = 0
KAI1 251001Z 15001KT 16/14 A30 RMK A01 T01580139  RH  089%=      5-min Rain = 0
KAI1 251002Z 16001KT 16/14 A30 RMK A01 T01580141  RH  090%=      5-min Rain = 0
KAI1 251003Z 15001KT 16/14 A30 RMK A01 T01580142  RH  090%=      5-min Rain = 0
KAI1 251004Z 16001KT 16/14 A30 RMK A01 T01580141  RH  090%=      5-min Rain = 0
KAI1 251005Z 15002KT 16/14 A30 RMK A01 T01580142  RH  090%=      5-min Rain = 0
KAI1 251006Z 14002KT 16/14 A30 RMK A01 T01580143  RH  090%=      5-min Rain = 0
KAI1 251007Z 15002KT 16/14 A30 RMK A01 T01590142  RH  090%=      5-min Rain = 0
KAI1 251008Z 15002KT 16/14 A30 RMK A01 T01600141  RH  089%=      5-min Rain = 0
KAI1 251009Z 16002KT 16/14 A30 RMK A01 T01600142  RH  089%=      5-min Rain = 0
KAI1 251010Z 14002KT 16/14 A30 RMK A01 T01610142  RH  089%=      5-min Rain = 0
KAI1 251011Z 13003KT 16/14 A30 RMK A01 T01610143  RH  089%=      5-min Rain = 0
KAI1 251012Z 13003KT 16/14 A30 RMK A01 T01620143  RH  089%=      5-min Rain = 0
KAI1 251013Z 13003KT 16/15 A30 RMK A01 T01620145  RH  089%=      5-min Rain = 0
KAI1 251014Z 13003KT 16/15 A30 RMK A01 T01630146  RH  090%=      5-min Rain = 0
KAI1 251015Z 14003KT 16/15 A30 RMK A01 T01630147  RH  090%=      5-min Rain = 0
KAI1 251016Z 15003KT 16/15 A30 RMK A01 T01620147  RH  091%=      5-min Rain = 0
KAI1 251017Z 16002KT 16/15 A30 RMK A01 T01630148  RH  091%=      5-min Rain = 0
KAI1 251018Z 17003KT 16/15 A30 RMK A01 T01630148  RH  091%=      5-min Rain = 0
KAI1 251019Z 17003KT 16/15 A30 RMK A01 T01630148  RH  091%=      5-min Rain = 0
KAI1 251020Z 17003KT 16/15 A30 RMK A01 T01620147  RH  091%=      5-min Rain = 0
KAI1 251021Z 17003KT 16/15 A30 RMK A01 T01620147  RH  091%=      5-min Rain = 0
KAI1 251022Z 17003KT 16/15 A30 RMK A01 T01620147  RH  091%=      5-min Rain = 0
KAI1 251023Z 17004KT 16/15 A30 RMK A01 T01610147  RH  091%=      5-min Rain = 0
KAI1 251024Z 18005KT 16/15 A30 RMK A01 T01610146  RH  091%=      5-min Rain = 0
KAI1 251025Z 17005KT 16/15 A3001 RMK A01 T01610147  RH  091%=      5-min Rain = 0
KAI1 251026Z 17005KT 16/15 A3001 RMK A01 T01610146  RH  091%=      5-min Rain = 0
KAI1 251027Z 17005KT 16/15 A30 RMK A01 T01610146  RH  091%=      5-min Rain = 0
KAI1 251028Z 16004KT 16/15 A30 RMK A01 T01610145  RH  090%=      5-min Rain = 0
KAI1 251029Z 17004KT 16/15 A3001 RMK A01 T01620145  RH  090%=      5-min Rain = 0
KAI1 251030Z 16004KT 16/15 A3001 RMK A01 T01620145  RH  090%=      5-min Rain = 0
KAI1 251031Z 16005KT 16/15 A3001 RMK A01 T01620145  RH  090%=      5-min Rain = 0
KAI1 251032Z 17005KT 16/15 A3001 RMK A01 T01620145  RH  090%=      5-min Rain = 0
KAI1 251033Z 16005KT 16/15 A3001 RMK A01 T01620145  RH  089%=      5-min Rain = 0
KAI1 251034Z 16004KT 16/15 A3001 RMK A01 T01620145  RH  090%=      5-min Rain = 0
KAI1 251035Z 16004KT 16/15 A3001 RMK A01 T01620145  RH  090%=      5-min Rain = 0
KAI1 251036Z 17005KT 16/15 A3001 RMK A01 T01620145  RH  090%=      5-min Rain = 0
KAI1 251037Z 17004KT 16/15 A3001 RMK A01 T01620145  RH  090%=      5-min Rain = 0
KAI1 251038Z 17004KT 16/15 A3001 RMK A01 T01620145  RH  090%=      5-min Rain = 0
KAI1 251039Z 17004KT 16/15 A3001 RMK A01 T01620145  RH  090%=      5-min Rain = 0
KAI1 251040Z 17004KT 16/15 A3001 RMK A01 T01620145  RH  090%=      5-min Rain = 0
KAI1 251041Z 18004KT 16/15 A3001 RMK A01 T01620145  RH  090%=      5-min Rain = 0
KAI1 251042Z 18004KT 16/14 A3001 RMK A01 T01620144  RH  089%=      5-min Rain = 0
KAI1 251043Z 18004KT 16/14 A3001 RMK A01 T01630144  RH  089%=      5-min Rain = 0
KAI1 251044Z 18005KT 16/14 A3001 RMK A01 T01640144  RH  088%=      5-min Rain = 0
KAI1 251045Z 19005KT 16/14 A3001 RMK A01 T01640141  RH  087%=      5-min Rain = 0
KAI1 251046Z 19005KT 16/14 A3001 RMK A01 T01630140  RH  086%=      5-min Rain = 0
KAI1 251047Z 20005KT 16/14 A3001 RMK A01 T01630138  RH  085%=      5-min Rain = 0
KAI1 251048Z 20005KT 16/14 A3001 RMK A01 T01620137  RH  085%=      5-min Rain = 0
KAI1 251049Z 20005KT 16/14 A3001 RMK A01 T01600137  RH  086%=      5-min Rain = 0
KAI1 251050Z 20005KT 16/14 A3001 RMK A01 T01590136  RH  086%=      5-min Rain = 0
KAI1 251051Z 20005KT 16/14 A3002 RMK A01 T01580135  RH  087%=      5-min Rain = 0
KAI1 251052Z 20005KT 16/14 A3002 RMK A01 T01570135  RH  087%=      5-min Rain = 0
KAI1 251053Z 19005KT 16/14 A3002 RMK A01 T01560135  RH  088%=      5-min Rain = 0
KAI1 251054Z 19005KT 16/14 A3002 RMK A01 T01550135  RH  088%=      5-min Rain = 0
KAI1 251055Z 19005KT 15/13 A3002 RMK A01 T01540134  RH  088%=      5-min Rain = 0
KAI1 251056Z 19005KT 15/14 A3002 RMK A01 T01540135  RH  088%=      5-min Rain = 0
KAI1 251057Z 19005KT 15/14 A3002 RMK A01 T01540135  RH  089%=      5-min Rain = 0
KAI1 251058Z 20004KT 15/14 A3002 RMK A01 T01540135  RH  088%=      5-min Rain = 0
KAI1 251059Z 20004KT 16/13 A3002 RMK A01 T01550134  RH  088%=      5-min Rain = 0
KAI1 251100Z 20004KT 16/13 A3002 RMK A01 T01550134  RH  087%=      5-min Rain = 0
KAI1 251101Z 20003KT 16/13 A3002 RMK A01 T01550134  RH  087%=      5-min Rain = 0
KAI1 251102Z 20003KT 16/13 A3002 RMK A01 T01550134  RH  087%=      5-min Rain = 0
KAI1 251103Z 20003KT 16/14 A3002 RMK A01 T01550135  RH  088%=      5-min Rain = 0
KAI1 251104Z 20003KT 16/14 A3002 RMK A01 T01550135  RH  088%=      5-min Rain = 0
KAI1 251105Z 21003KT 15/13 A3002 RMK A01 T01540134  RH  088%=      5-min Rain = 0
KAI1 251106Z 22003KT 15/14 A3002 RMK A01 T01540135  RH  088%=      5-min Rain = 0
KAI1 251107Z 22003KT 15/14 A3002 RMK A01 T01540135  RH  089%=      5-min Rain = 0
KAI1 251108Z 22003KT 15/14 A3002 RMK A01 T01540135  RH  089%=      5-min Rain = 0
KAI1 251109Z 22003KT 15/14 A3002 RMK A01 T01540135  RH  088%=      5-min Rain = 0
KAI1 251110Z 21003KT 15/14 A3002 RMK A01 T01540135  RH  088%=      5-min Rain = 0
KAI1 251111Z 21003KT 15/14 A3002 RMK A01 T01540135  RH  088%=      5-min Rain = 0
KAI1 251112Z 21003KT 15/14 A3002 RMK A01 T01540136  RH  089%=      5-min Rain = 0
KAI1 251113Z 20003KT 15/14 A3002 RMK A01 T01540136  RH  089%=      5-min Rain = 0
KAI1 251114Z 19003KT 15/14 A3002 RMK A01 T01540136  RH  089%=      5-min Rain = 0
KAI1 251115Z 18003KT 15/14 A3002 RMK A01 T01540137  RH  089%=      5-min Rain = 0
KAI1 251116Z 18003KT 15/14 A3002 RMK A01 T01540136  RH  089%=      5-min Rain = 0
KAI1 251117Z 17002KT 15/14 A3002 RMK A01 T01540135  RH  089%=      5-min Rain = 0
KAI1 251118Z 18002KT 15/14 A3002 RMK A01 T01540136  RH  089%=      5-min Rain = 0
KAI1 251119Z 18002KT 15/14 A3002 RMK A01 T01540137  RH  089%=      5-min Rain = 0
KAI1 251120Z 19002KT 16/14 A3002 RMK A01 T01550138  RH  090%=      5-min Rain = 0
KAI1 251121Z 19002KT 16/14 A3002 RMK A01 T01560139  RH  090%=      5-min Rain = 0
KAI1 251122Z 19003KT 16/14 A3002 RMK A01 T01560139  RH  089%=      5-min Rain = 0
KAI1 251123Z 19003KT 16/14 A3002 RMK A01 T01570139  RH  089%=      5-min Rain = 0
KAI1 251124Z 20003KT 16/14 A3003 RMK A01 T01570139  RH  089%=      5-min Rain = 0
KAI1 251125Z 20002KT 16/14 A3003 RMK A01 T01580139  RH  089%=      5-min Rain = 0
KAI1 251126Z 20002KT 16/14 A3003 RMK A01 T01580139  RH  089%=      5-min Rain = 0
KAI1 251127Z 20002KT 16/14 A3003 RMK A01 T01580139  RH  088%=      5-min Rain = 0
KAI1 251128Z 20002KT 16/14 A3003 RMK A01 T01580138  RH  088%=      5-min Rain = 0
KAI1 251129Z 20002KT 16/14 A3003 RMK A01 T01580139  RH  088%=      5-min Rain = 0
KAI1 251130Z 20002KT 16/14 A3003 RMK A01 T01580138  RH  088%=      5-min Rain = 0
KAI1 251131Z 20002KT 16/14 A3003 RMK A01 T01590138  RH  088%=      5-min Rain = 0
KAI1 251132Z 20001KT 16/14 A3003 RMK A01 T01590138  RH  087%=      5-min Rain = 0
KAI1 251133Z 19001KT 16/14 A3003 RMK A01 T01590137  RH  087%=      5-min Rain = 0
KAI1 251134Z 19000KT 16/14 A3003 RMK A01 T01570135  RH  086%=      5-min Rain = 0
KAI1 251135Z 00000KT 16/13 A3003 RMK A01 T01550132  RH  086%=      5-min Rain = 0
KAI1 251136Z 00000KT 15/13 A3003 RMK A01 T01530132  RH  087%=      5-min Rain = 0
KAI1 251137Z 00000KT 15/13 A3003 RMK A01 T01520131  RH  088%=      5-min Rain = 0
KAI1 251138Z 00000KT 15/13 A3003 RMK A01 T01510131  RH  088%=      5-min Rain = 0
KAI1 251139Z 09000KT 15/13 A3003 RMK A01 T01500131  RH  088%=      5-min Rain = 0
KAI1 251140Z 07001KT 15/13 A3003 RMK A01 T01490132  RH  089%=      5-min Rain = 0
KAI1 251141Z 06002KT 15/13 A3003 RMK A01 T01490132  RH  090%=      5-min Rain = 0
KAI1 251142Z 06002KT 15/13 A3003 RMK A01 T01480132  RH  090%=      5-min Rain = 0
KAI1 251143Z 07002KT 15/13 A3003 RMK A01 T01480132  RH  090%=      5-min Rain = 0
KAI1 251144Z 06001KT 15/13 A3003 RMK A01 T01470132  RH  091%=      5-min Rain = 0
KAI1 251145Z 05001KT 15/13 A3003 RMK A01 T01470132  RH  091%=      5-min Rain = 0
KAI1 251146Z 04002KT 15/13 A3003 RMK A01 T01470132  RH  091%=      5-min Rain = 0
KAI1 251147Z 04002KT 15/13 A3003 RMK A01 T01460132  RH  091%=      5-min Rain = 0
KAI1 251148Z 04002KT 15/13 A3003 RMK A01 T01460132  RH  091%=      5-min Rain = 0
KAI1 251149Z 03001KT 15/13 A3003 RMK A01 T01460132  RH  091%=      5-min Rain = 0
KAI1 251150Z 02001KT 15/13 A3003 RMK A01 T01460132  RH  091%=      5-min Rain = 0
KAI1 251151Z 02001KT 15/13 A3003 RMK A01 T01460132  RH  091%=      5-min Rain = 0
KAI1 251152Z 02001KT 15/13 A3003 RMK A01 T01470132  RH  091%=      5-min Rain = 0
KAI1 251153Z 02001KT 15/13 A3003 RMK A01 T01470133  RH  091%=      5-min Rain = 0
KAI1 251154Z 00001KT 15/13 A3003 RMK A01 T01480134  RH  091%=      5-min Rain = 0
KAI1 251155Z 34001KT 15/13 A3003 RMK A01 T01480134  RH  091%=      5-min Rain = 0
KAI1 251156Z 32001KT 15/14 A3003 RMK A01 T01490135  RH  091%=      5-min Rain = 0
KAI1 251157Z 30001KT 15/14 A3003 RMK A01 T01490135  RH  091%=      5-min Rain = 0
KAI1 251158Z 28002KT 15/14 A3003 RMK A01 T01500135  RH  091%=      5-min Rain = 0
KAI1 251159Z 28002KT 15/14 A3003 RMK A01 T01500136  RH  091%=      5-min Rain = 0
KAI1 251200Z 26002KT 15/14 A3003 RMK A01 T01510136  RH  091%=      5-min Rain = 0
KAI1 251201Z 26002KT 15/14 A3003 RMK A01 T01510137  RH  091%=      5-min Rain = 0
KAI1 251202Z 25002KT 15/14 A3003 RMK A01 T01520137  RH  091%=      5-min Rain = 0
KAI1 251203Z 24002KT 15/14 A3003 RMK A01 T01530137  RH  091%=      5-min Rain = 0
KAI1 251204Z 23002KT 15/14 A3003 RMK A01 T01530138  RH  091%=      5-min Rain = 0
KAI1 251205Z 22001KT 16/14 A3003 RMK A01 T01550139  RH  090%=      5-min Rain = 0
KAI1 251206Z 20001KT 16/14 A3003 RMK A01 T01560140  RH  090%=      5-min Rain = 0
KAI1 251207Z 16001KT 16/14 A3003 RMK A01 T01580139  RH  089%=      5-min Rain = 0
KAI1 251208Z 13002KT 16/14 A3004 RMK A01 T01590140  RH  089%=      5-min Rain = 0
KAI1 251209Z 12003KT 16/14 A3004 RMK A01 T01590140  RH  088%=      5-min Rain = 0
KAI1 251210Z 12004KT 16/14 A3004 RMK A01 T01600141  RH  088%=      5-min Rain = 0
KAI1 251211Z 13004KT 16/14 A3004 RMK A01 T01600142  RH  089%=      5-min Rain = 0
KAI1 251212Z 13003KT 16/14 A3004 RMK A01 T01610144  RH  089%=      5-min Rain = 0
KAI1 251213Z 12004KT 16/15 A3004 RMK A01 T01620146  RH  090%=      5-min Rain = 0
KAI1 251214Z 12003KT 16/15 A3004 RMK A01 T01630146  RH  090%=      5-min Rain = 0
KAI1 251215Z 13002KT 17/15 A3004 RMK A01 T01650146  RH  089%=      5-min Rain = 0
KAI1 251216Z 15001KT 17/15 A3004 RMK A01 T01660146  RH  088%=      5-min Rain = 0
KAI1 251217Z 18001KT 17/15 A3004 RMK A01 T01670146  RH  087%=      5-min Rain = 0
KAI1 251218Z 21002KT 17/15 A3004 RMK A01 T01680146  RH  087%=      5-min Rain = 0
KAI1 251219Z 22003KT 17/15 A3004 RMK A01 T01680146  RH  086%=      5-min Rain = 0
KAI1 251220Z 22002KT 17/14 A3004 RMK A01 T01690144  RH  086%=      5-min Rain = 0
KAI1 251221Z 23003KT 17/14 A3004 RMK A01 T01690141  RH  083%=      5-min Rain = 0
KAI1 251222Z 24002KT 17/14 A3004 RMK A01 T01710140  RH  082%=      5-min Rain = 0
KAI1 251223Z 24003KT 17/14 A3004 RMK A01 T01720142  RH  082%=      5-min Rain = 0
KAI1 251224Z 25003KT 17/14 A3004 RMK A01 T01720142  RH  082%=      5-min Rain = 0
KAI1 251225Z 24003KT 17/14 A3004 RMK A01 T01720142  RH  082%=      5-min Rain = 0
KAI1 251226Z 25003KT 17/14 A3004 RMK A01 T01720142  RH  082%=      5-min Rain = 0
KAI1 251227Z 25003KT 17/14 A3004 RMK A01 T01720142  RH  083%=      5-min Rain = 0
KAI1 251228Z 24003KT 17/14 A3004 RMK A01 T01720143  RH  083%=      5-min Rain = 0
KAI1 251229Z 24003KT 17/14 A3004 RMK A01 T01720143  RH  083%=      5-min Rain = 0
KAI1 251230Z 23003KT 17/14 A3004 RMK A01 T01720143  RH  083%=      5-min Rain = 0
KAI1 251231Z 22003KT 17/14 A3004 RMK A01 T01720143  RH  083%=      5-min Rain = 0
KAI1 251232Z 21003KT 17/14 A3004 RMK A01 T01730142  RH  082%=      5-min Rain = 0
KAI1 251233Z 21003KT 17/14 A3004 RMK A01 T01730141  RH  081%=      5-min Rain = 0
KAI1 251234Z 21003KT 17/14 A3004 RMK A01 T01740142  RH  082%=      5-min Rain = 0
KAI1 251235Z 21003KT 17/14 A3004 RMK A01 T01740140  RH  080%=      5-min Rain = 0
KAI1 251236Z 22004KT 18/14 A3004 RMK A01 T01750139  RH  080%=      5-min Rain = 0
KAI1 251237Z 21004KT 18/14 A3004 RMK A01 T01750138  RH  079%=      5-min Rain = 0
KAI1 251238Z 21004KT 18/14 A3004 RMK A01 T01760139  RH  079%=      5-min Rain = 0
KAI1 251239Z 21004KT 18/14 A3004 RMK A01 T01760140  RH  079%=      5-min Rain = 0
KAI1 251240Z 21004KT 18/14 A3004 RMK A01 T01760141  RH  080%=      5-min Rain = 0
KAI1 251241Z 21004KT 18/14 A3004 RMK A01 T01760141  RH  080%=      5-min Rain = 0
KAI1 251242Z 22004KT 18/14 A3004 RMK A01 T01770143  RH  080%=      5-min Rain = 0
KAI1 251243Z 22004KT 18/14 A3004 RMK A01 T01770144  RH  081%=      5-min Rain = 0
KAI1 251244Z 22004KT 18/15 A3004 RMK A01 T01770146  RH  082%=      5-min Rain = 0
KAI1 251245Z 22004KT 18/15 A3004 RMK A01 T01770146  RH  082%=      5-min Rain = 0
KAI1 251246Z 22004KT 18/15 A3004 RMK A01 T01780146  RH  082%=      5-min Rain = 0
KAI1 251247Z 21003KT 18/15 A3004 RMK A01 T01770148  RH  083%=      5-min Rain = 0
KAI1 251248Z 22003KT 18/15 A3004 RMK A01 T01780146  RH  081%=      5-min Rain = 0
KAI1 251249Z 21003KT 18/15 A3004 RMK A01 T01790146  RH  081%=      5-min Rain = 0
KAI1 251250Z 20004KT 18/14 A3004 RMK A01 T01790144  RH  080%=      5-min Rain = 0
KAI1 251251Z 20003KT 18/14 A3004 RMK A01 T01800144  RH  079%=      5-min Rain = 0
KAI1 251252Z 19003KT 18/14 A3004 RMK A01 T01810144  RH  079%=      5-min Rain = 0
KAI1 251253Z 19004KT 18/14 A3004 RMK A01 T01810142  RH  078%=      5-min Rain = 0
KAI1 251254Z 19003KT 18/14 A3004 RMK A01 T01820140  RH  076%=      5-min Rain = 0
KAI1 251255Z 19003KT 18/14 A3004 RMK A01 T01830140  RH  076%=      5-min Rain = 0
KAI1 251256Z 19003KT 18/14 A3004 RMK A01 T01840141  RH  076%=      5-min Rain = 0
KAI1 251257Z 20004KT 18/14 A3004 RMK A01 T01840139  RH  075%=      5-min Rain = 0
KAI1 251258Z 20004KT 18/14 A3004 RMK A01 T01840138  RH  074%=      5-min Rain = 0
KAI1 251259Z 21003KT 18/14 A3004 RMK A01 T01840140  RH  075%=      5-min Rain = 0
KAI1 251300Z 21003KT 19/14 A3004 RMK A01 T01850141  RH  076%=      5-min Rain = 0
KAI1 251301Z 23004KT 19/14 A3004 RMK A01 T01850142  RH  076%=      5-min Rain = 0
KAI1 251302Z 23003KT 19/14 A3004 RMK A01 T01850142  RH  076%=      5-min Rain = 0
KAI1 251303Z 24004KT 19/15 A3004 RMK A01 T01860146  RH  078%=      5-min Rain = 0
KAI1 251304Z 24005KT 19/14 A3004 RMK A01 T01860143  RH  076%=      5-min Rain = 0
KAI1 251305Z 24005KT 19/14 A3004 RMK A01 T01860143  RH  076%=      5-min Rain = 0
KAI1 251306Z 24004KT 19/14 A3004 RMK A01 T01860144  RH  076%=      5-min Rain = 0
KAI1 251307Z 23005KT 19/15 A3004 RMK A01 T01870146  RH  077%=      5-min Rain = 0
KAI1 251308Z 24005KT 19/15 A3004 RMK A01 T01880146  RH  077%=      5-min Rain = 0
KAI1 251309Z 23005KT 19/15 A3004 RMK A01 T01880147  RH  077%=      5-min Rain = 0
KAI1 251310Z 23005KT 19/15 A3004 RMK A01 T01890148  RH  077%=      5-min Rain = 0
KAI1 251311Z 23005KT 19/15 A3004 RMK A01 T01900145  RH  075%=      5-min Rain = 0
KAI1 251312Z 23006KT 19/14 A3004 RMK A01 T01910144  RH  074%=      5-min Rain = 0
KAI1 251313Z 22006KT 19/14 A3004 RMK A01 T01910141  RH  072%=      5-min Rain = 0
KAI1 251314Z 22005KT 19/14 A3004 RMK A01 T01910140  RH  072%=      5-min Rain = 0
KAI1 251315Z 22004KT 19/14 A3004 RMK A01 T01920143  RH  073%=      5-min Rain = 0
KAI1 251316Z 21005KT 19/14 A3004 RMK A01 T01930144  RH  074%=      5-min Rain = 0
KAI1 251317Z 20005KT 19/14 A3005 RMK A01 T01930142  RH  072%=      5-min Rain = 0
KAI1 251318Z 20005KT 19/14 A3005 RMK A01 T01930143  RH  073%=      5-min Rain = 0
KAI1 251319Z 20005KT 19/14 A3005 RMK A01 T01940143  RH  073%=      5-min Rain = 0
KAI1 251320Z 21004KT 19/14 A3005 RMK A01 T01940143  RH  072%=      5-min Rain = 0
KAI1 251321Z 20005KT 20/14 A3005 RMK A01 T01950143  RH  072%=      5-min Rain = 0
KAI1 251322Z 22005KT 20/14 A3005 RMK A01 T01960143  RH  071%=      5-min Rain = 0
KAI1 251323Z 22005KT 20/14 A3005 RMK A01 T01960141  RH  070%=      5-min Rain = 0
KAI1 251324Z 22006KT 20/14 A3005 RMK A01 T01970141  RH  070%=      5-min Rain = 0
KAI1 251325Z 22006KT 20/14 A3005 RMK A01 T01970140  RH  070%=      5-min Rain = 0
KAI1 251326Z 22005KT 20/14 A3005 RMK A01 T01970141  RH  070%=      5-min Rain = 0
KAI1 251327Z 22005KT 20/14 A3005 RMK A01 T01970143  RH  071%=      5-min Rain = 0
KAI1 251328Z 22006KT 20/14 A3005 RMK A01 T01980141  RH  070%=      5-min Rain = 0
KAI1 251329Z 22005KT 20/14 A3005 RMK A01 T01980141  RH  070%=      5-min Rain = 0
KAI1 251330Z 23006KT 20/14 A3005 RMK A01 T01980141  RH  070%=      5-min Rain = 0
KAI1 251331Z 23006KT 20/14 A3005 RMK A01 T01980141  RH  070%=      5-min Rain = 0
KAI1 251332Z 22005KT 20/14 A3005 RMK A01 T01990144  RH  071%=      5-min Rain = 0
KAI1 251333Z 23006KT 20/14 A3005 RMK A01 T02000141  RH  069%=      5-min Rain = 0
KAI1 251334Z 23006KT 20/14 A3005 RMK A01 T02010142  RH  069%=      5-min Rain = 0
KAI1 251335Z 23006KT 20/14 A3005 RMK A01 T02020143  RH  069%=      5-min Rain = 0
KAI1 251336Z 24006KT 20/14 A3005 RMK A01 T02020144  RH  069%=      5-min Rain = 0
KAI1 251337Z 24006KT 20/14 A3005 RMK A01 T02040142  RH  068%=      5-min Rain = 0
KAI1 251338Z 23006KT 21/14 A3005 RMK A01 T02050143  RH  068%=      5-min Rain = 0
KAI1 251339Z 22007KT 21/14 A3005 RMK A01 T02060139  RH  066%=      5-min Rain = 0
KAI1 251340Z 23007KT 21/14 A3005 RMK A01 T02060140  RH  066%=      5-min Rain = 0
KAI1 251341Z 23008KT 21/14 A3005 RMK A01 T02060139  RH  065%=      5-min Rain = 0
KAI1 251342Z 22007KT 21/14 A3005 RMK A01 T02060139  RH  065%=      5-min Rain = 0
KAI1 251343Z 22006KT 21/14 A3005 RMK A01 T02060141  RH  066%=      5-min Rain = 0
KAI1 251344Z 22008KT 21/14 A3005 RMK A01 T02070142  RH  066%=      5-min Rain = 0
KAI1 251345Z 23006KT 21/14 A3005 RMK A01 T02080140  RH  065%=      5-min Rain = 0
KAI1 251346Z 22007KT 21/14 A3005 RMK A01 T02080142  RH  066%=      5-min Rain = 0
KAI1 251347Z 23008KT 21/14 A3005 RMK A01 T02090141  RH  065%=      5-min Rain = 0
KAI1 251348Z 24007KT 21/14 A3005 RMK A01 T02100140  RH  064%=      5-min Rain = 0
KAI1 251349Z 23006KT 21/14 A3005 RMK A01 T02100141  RH  065%=      5-min Rain = 0
KAI1 251350Z 23007KT 21/14 A3005 RMK A01 T02110140  RH  064%=      5-min Rain = 0
KAI1 251351Z 23009KT 21/14 A3005 RMK A01 T02110139  RH  064%=      5-min Rain = 0
KAI1 251352Z 23009KT 21/14 A3005 RMK A01 T02110139  RH  063%=      5-min Rain = 0
KAI1 251353Z 22009KT 21/14 A3005 RMK A01 T02110139  RH  063%=      5-min Rain = 0
KAI1 251354Z 23008KT 21/14 A3005 RMK A01 T02120141  RH  064%=      5-min Rain = 0
KAI1 251355Z 23008KT 21/14 A3005 RMK A01 T02130140  RH  063%=      5-min Rain = 0
KAI1 251356Z 23011KT 21/14 A3005 RMK A01 T02140140  RH  063%=      5-min Rain = 0
KAI1 251357Z 23008KT 21/14 A3005 RMK A01 T02140140  RH  063%=      5-min Rain = 0
KAI1 251358Z 23009KT 21/14 A3005 RMK A01 T02140140  RH  063%=      5-min Rain = 0
KAI1 251359Z 23010KT 22/14 A3005 RMK A01 T02150140  RH  062%=      5-min Rain = 0
KAI1 251400Z 23011KT 22/14 A3005 RMK A01 T02160140  RH  062%=      5-min Rain = 0
KAI1 251401Z 24012KT 22/14 A3005 RMK A01 T02160139  RH  061%=      5-min Rain = 0
KAI1 251402Z 22011KT 22/14 A3005 RMK A01 T02170139  RH  061%=      5-min Rain = 0
KAI1 251403Z 23011KT 22/14 A3005 RMK A01 T02160141  RH  062%=      5-min Rain = 0
KAI1 251404Z 23012KT 22/14 A3005 RMK A01 T02160138  RH  061%=      5-min Rain = 0
KAI1 251405Z 24010KT 22/14 A3005 RMK A01 T02170140  RH  062%=      5-min Rain = 0
KAI1 251406Z 24012KT 22/14 A3005 RMK A01 T02180139  RH  061%=      5-min Rain = 0
KAI1 251407Z 23009KT 22/14 A3005 RMK A01 T02190141  RH  061%=      5-min Rain = 0
KAI1 251408Z 23009KT 22/14 A3005 RMK A01 T02190141  RH  061%=      5-min Rain = 0
KAI1 251409Z 23010KT 22/14 A3005 RMK A01 T02200142  RH  061%=      5-min Rain = 0
KAI1 251410Z 22012KT 22/14 A3005 RMK A01 T02210142  RH  061%=      5-min Rain = 0
KAI1 251411Z 23011KT 22/14 A3005 RMK A01 T02210139  RH  060%=      5-min Rain = 0
KAI1 251412Z 22010KT 22/14 A3005 RMK A01 T02200141  RH  061%=      5-min Rain = 0
KAI1 251413Z 23009KT 22/14 A3005 RMK A01 T02200141  RH  061%=      5-min Rain = 0
KAI1 251414Z 24009KT 22/14 A3005 RMK A01 T02210144  RH  061%=      5-min Rain = 0
KAI1 251415Z 23010KT 22/14 A3005 RMK A01 T02240144  RH  061%=      5-min Rain = 0
KAI1 251416Z 23011KT 23/14 A3005 RMK A01 T02250143  RH  060%=      5-min Rain = 0
KAI1 251417Z 22010KT 22/14 A3005 RMK A01 T02240142  RH  060%=      5-min Rain = 0
KAI1 251418Z 22011KT 22/14 A3005 RMK A01 T02230143  RH  060%=      5-min Rain = 0
KAI1 251419Z 22011KT 22/14 A3005 RMK A01 T02230143  RH  060%=      5-min Rain = 0
KAI1 251420Z 24010KT 22/14 A3005 RMK A01 T02230142  RH  060%=      5-min Rain = 0
KAI1 251421Z 23010KT 22/14 A3005 RMK A01 T02230142  RH  060%=      5-min Rain = 0
KAI1 251422Z 24010KT 22/14 A3005 RMK A01 T02230143  RH  061%=      5-min Rain = 0
KAI1 251423Z 25011KT 22/14 A3005 RMK A01 T02230143  RH  060%=      5-min Rain = 0
KAI1 251424Z 24010KT 23/15 A3005 RMK A01 T02250145  RH  060%=      5-min Rain = 0
KAI1 251425Z 24011KT 23/15 A3005 RMK A01 T02280147  RH  060%=      5-min Rain = 0
KAI1 251426Z 24010KT 23/15 A3005 RMK A01 T02300146  RH  059%=      5-min Rain = 0
KAI1 251427Z 24011KT 23/15 A3005 RMK A01 T02310146  RH  059%=      5-min Rain = 0
KAI1 251428Z 24010KT 23/15 A3005 RMK A01 T02300145  RH  059%=      5-min Rain = 0
KAI1 251429Z 22010KT 23/15 A3005 RMK A01 T02290146  RH  060%=      5-min Rain = 0
KAI1 251430Z 23011KT 23/15 A3005 RMK A01 T02280146  RH  060%=      5-min Rain = 0
KAI1 251431Z 23011KT 23/15 A3005 RMK A01 T02290148  RH  060%=      5-min Rain = 0
KAI1 251432Z 23014KT 23/15 A3005 RMK A01 T02310147  RH  059%=      5-min Rain = 0
KAI1 251433Z 23010KT 23/15 A3005 RMK A01 T02300146  RH  059%=      5-min Rain = 0
KAI1 251434Z 23011KT 23/15 A3005 RMK A01 T02300148  RH  060%=      5-min Rain = 0
KAI1 251435Z 23009KT 23/15 A3005 RMK A01 T02300147  RH  059%=      5-min Rain = 0
KAI1 251436Z 23010KT 23/15 A3005 RMK A01 T02310148  RH  059%=      5-min Rain = 0
KAI1 251437Z 22010KT 23/15 A3005 RMK A01 T02330150  RH  060%=      5-min Rain = 0
KAI1 251438Z 23011KT 24/15 A3005 RMK A01 T02350151  RH  059%=      5-min Rain = 0
KAI1 251439Z 24011KT 24/15 A3005 RMK A01 T02360150  RH  058%=      5-min Rain = 0
KAI1 251440Z 22011KT 24/15 A3005 RMK A01 T02370150  RH  058%=      5-min Rain = 0
KAI1 251441Z 22011KT 24/15 A3005 RMK A01 T02370151  RH  058%=      5-min Rain = 0
KAI1 251442Z 22012KT 24/15 A3005 RMK A01 T02370150  RH  058%=      5-min Rain = 0
KAI1 251443Z 23011KT 24/15 A3005 RMK A01 T02370150  RH  058%=      5-min Rain = 0
KAI1 251444Z 23010KT 24/15 A3005 RMK A01 T02380150  RH  058%=      5-min Rain = 0
KAI1 251445Z 22010KT 24/15 A3005 RMK A01 T02390152  RH  058%=      5-min Rain = 0
KAI1 251446Z 22011KT 24/15 A3005 RMK A01 T02390150  RH  057%=      5-min Rain = 0
KAI1 251447Z 22011KT 24/15 A3005 RMK A01 T02380150  RH  058%=      5-min Rain = 0
KAI1 251448Z 24009KT 24/15 A3005 RMK A01 T02390151  RH  058%=      5-min Rain = 0
KAI1 251449Z 24012KT 24/15 A3005 RMK A01 T02410152  RH  057%=      5-min Rain = 0
KAI1 251450Z 24012KT 24/15 A3005 RMK A01 T02430153  RH  057%=      5-min Rain = 0
KAI1 251451Z 24011KT 24/15 A3005 RMK A01 T02440152  RH  056%=      5-min Rain = 0
KAI1 251452Z 24012KT 24/15 A3005 RMK A01 T02440152  RH  056%=      5-min Rain = 0
KAI1 251453Z 24012KT 24/15 A3005 RMK A01 T02440154  RH  057%=      5-min Rain = 0
KAI1 251454Z 23012KT 25/15 A3005 RMK A01 T02460153  RH  056%=      5-min Rain = 0
KAI1 251455Z 23012KT 25/15 A3005 RMK A01 T02460152  RH  056%=      5-min Rain = 0
KAI1 251456Z 22012KT 25/15 A3005 RMK A01 T02450154  RH  057%=      5-min Rain = 0
KAI1 251457Z 24013KT 25/16 A3005 RMK A01 T02450155  RH  057%=      5-min Rain = 0
KAI1 251458Z 24015KT 25/16 A3005 RMK A01 T02460155  RH  057%=      5-min Rain = 0
KAI1 251459Z 24015KT 25/16 A3005 RMK A01 T02480155  RH  056%=      5-min Rain = 0
KAI1 251500Z 23015KT 25/16 A3005 RMK A01 T02480155  RH  056%=      5-min Rain = 0
KAI1 251501Z 23013KT 25/15 A3005 RMK A01 T02470154  RH  056%=      5-min Rain = 0
KAI1 251502Z 24013KT 25/16 A3005 RMK A01 T02470157  RH  057%=      5-min Rain = 0
KAI1 251503Z 22016KT 25/16 A3005 RMK A01 T02490158  RH  057%=      5-min Rain = 0
KAI1 251504Z 22015KT 25/16 A3005 RMK A01 T02500157  RH  056%=      5-min Rain = 0
KAI1 251505Z 23016KT 25/16 A3005 RMK A01 T02490158  RH  057%=      5-min Rain = 0
KAI1 251506Z 23017KT 25/16 A3005 RMK A01 T02500156  RH  056%=      5-min Rain = 0
KAI1 251507Z 24013KT 25/16 A3005 RMK A01 T02490156  RH  056%=      5-min Rain = 0
KAI1 251508Z 24014KT 25/16 A3005 RMK A01 T02490156  RH  056%=      5-min Rain = 0
KAI1 251509Z 23017KT 25/16 A3005 RMK A01 T02500156  RH  056%=      5-min Rain = 0
KAI1 251510Z 23015KT 25/16 A3005 RMK A01 T02500156  RH  056%=      5-min Rain = 0
KAI1 251511Z 22015KT 25/16 A3005 RMK A01 T02500158  RH  057%=      5-min Rain = 0
KAI1 251512Z 23015KT 25/16 A3005 RMK A01 T02500158  RH  056%=      5-min Rain = 0
KAI1 251513Z 24014KT 25/16 A3005 RMK A01 T02520158  RH  056%=      5-min Rain = 0
KAI1 251514Z 24011KT 26/16 A3005 RMK A01 T02550159  RH  055%=      5-min Rain = 0
KAI1 251515Z 23014KT 26/16 A3005 RMK A01 T02580160  RH  054%=      5-min Rain = 0
KAI1 251516Z 23014G19KT 26/16 A3005 RMK A01 T02590159  RH  054%=      5-min Rain = 0
KAI1 251517Z 24017KT 26/16 A3004 RMK A01 T02580156  RH  053%=      5-min Rain = 0
KAI1 251518Z 23016KT 26/16 A3004 RMK A01 T02550155  RH  054%=      5-min Rain = 0
KAI1 251519Z 23015KT 25/16 A3004 RMK A01 T02530155  RH  055%=      5-min Rain = 0
KAI1 251520Z 22015KT 25/16 A3004 RMK A01 T02530157  RH  055%=      5-min Rain = 0
KAI1 251521Z 22014KT 26/16 A3004 RMK A01 T02550157  RH  055%=      5-min Rain = 0
KAI1 251522Z 23013KT 26/16 A3004 RMK A01 T02550159  RH  055%=      5-min Rain = 0
KAI1 251523Z 23014KT 26/16 A3004 RMK A01 T02550157  RH  055%=      5-min Rain = 0
KAI1 251524Z 22016KT 26/16 A3004 RMK A01 T02550157  RH  054%=      5-min Rain = 0
KAI1 251525Z 22014KT 26/16 A3004 RMK A01 T02550158  RH  055%=      5-min Rain = 0
KAI1 251526Z 22015KT 26/16 A3004 RMK A01 T02550158  RH  055%=      5-min Rain = 0
KAI1 251527Z 22016KT 26/16 A3004 RMK A01 T02550157  RH  055%=      5-min Rain = 0
KAI1 251528Z 23014KT 26/16 A3004 RMK A01 T02560157  RH  054%=      5-min Rain = 0
KAI1 251529Z 23014KT 26/16 A3004 RMK A01 T02580158  RH  054%=      5-min Rain = 0
KAI1 251530Z 22011KT 26/16 A3004 RMK A01 T02580160  RH  055%=      5-min Rain = 0
KAI1 251531Z 23015KT 26/16 A3004 RMK A01 T02610160  RH  054%=      5-min Rain = 0
KAI1 251532Z 23012KT 26/16 A3004 RMK A01 T02600159  RH  053%=      5-min Rain = 0
KAI1 251533Z 21012KT 26/16 A3004 RMK A01 T02590159  RH  054%=      5-min Rain = 0
KAI1 251534Z 22011KT 26/16 A3004 RMK A01 T02590159  RH  054%=      5-min Rain = 0
KAI1 251535Z 22014KT 26/16 A3004 RMK A01 T02590159  RH  054%=      5-min Rain = 0
KAI1 251536Z 23012KT 26/16 A3004 RMK A01 T02600159  RH  054%=      5-min Rain = 0
KAI1 251537Z 23012KT 26/16 A3004 RMK A01 T02620160  RH  053%=      5-min Rain = 0
KAI1 251538Z 23013KT 26/16 A3004 RMK A01 T02640158  RH  052%=      5-min Rain = 0
KAI1 251539Z 24014KT 26/16 A3004 RMK A01 T02630158  RH  052%=      5-min Rain = 0
KAI1 251540Z 24010KT 26/16 A3004 RMK A01 T02620158  RH  053%=      5-min Rain = 0
KAI1 251541Z 24011KT 26/16 A3004 RMK A01 T02620160  RH  053%=      5-min Rain = 0
KAI1 251542Z 24013KT 27/16 A3004 RMK A01 T02650160  RH  053%=      5-min Rain = 0
KAI1 251543Z 24011KT 27/16 A3004 RMK A01 T02650159  RH  052%=      5-min Rain = 0
KAI1 251544Z 24014KT 27/16 A3004 RMK A01 T02650159  RH  052%=      5-min Rain = 0
KAI1 251545Z 23014KT 27/16 A3004 RMK A01 T02650158  RH  052%=      5-min Rain = 0
KAI1 251546Z 22010KT 26/16 A3004 RMK A01 T02640158  RH  052%=      5-min Rain = 0
KAI1 251547Z 22012KT 27/16 A3004 RMK A01 T02660161  RH  052%=      5-min Rain = 0
KAI1 251548Z 22012KT 27/16 A3004 RMK A01 T02680159  RH  051%=      5-min Rain = 0
KAI1 251549Z 22013KT 27/16 A3004 RMK A01 T02680159  RH  051%=      5-min Rain = 0
KAI1 251550Z 23013KT 27/16 A3004 RMK A01 T02670157  RH  051%=      5-min Rain = 0
KAI1 251551Z 22012KT 27/16 A3004 RMK A01 T02660158  RH  052%=      5-min Rain = 0
KAI1 251552Z 22009KT 27/16 A3004 RMK A01 T02660158  RH  051%=      5-min Rain = 0
KAI1 251553Z 21010KT 27/16 A3004 RMK A01 T02660158  RH  052%=      5-min Rain = 0
KAI1 251554Z 23012KT 27/16 A3004 RMK A01 T02660159  RH  052%=      5-min Rain = 0
KAI1 251555Z 21010KT 27/16 A3004 RMK A01 T02670159  RH  052%=      5-min Rain = 0
KAI1 251556Z 22009KT 27/16 A3004 RMK A01 T02670160  RH  052%=      5-min Rain = 0
KAI1 251557Z 22012KT 27/16 A3004 RMK A01 T02690161  RH  051%=      5-min Rain = 0
KAI1 251558Z 23011KT 27/16 A3005 RMK A01 T02710160  RH  051%=      5-min Rain = 0
KAI1 251559Z 22011KT 27/16 A3005 RMK A01 T02690159  RH  051%=      5-min Rain = 0
KAI1 251600Z 22010KT 27/16 A3005 RMK A01 T02690158  RH  051%=      5-min Rain = 0
KAI1 251601Z 21010KT 27/16 A3005 RMK A01 T02690158  RH  051%=      5-min Rain = 0
KAI1 251602Z 21012KT 27/16 A3005 RMK A01 T02680159  RH  051%=      5-min Rain = 0
KAI1 251603Z 22010KT 27/16 A3005 RMK A01 T02710163  RH  051%=      5-min Rain = 0
KAI1 251604Z 21010KT 27/16 A3005 RMK A01 T02740161  RH  050%=      5-min Rain = 0
KAI1 251605Z 20009KT 27/16 A3005 RMK A01 T02730160  RH  050%=      5-min Rain = 0
KAI1 251606Z 20010KT 27/16 A3005 RMK A01 T02730161  RH  050%=      5-min Rain = 0
KAI1 251607Z 21010KT 28/16 A3005 RMK A01 T02750161  RH  050%=      5-min Rain = 0
KAI1 251608Z 22011KT 28/16 A3005 RMK A01 T02770161  RH  049%=      5-min Rain = 0
KAI1 251609Z 19010KT 28/16 A3005 RMK A01 T02770162  RH  050%=      5-min Rain = 0
KAI1 251610Z 20010KT 28/16 A3005 RMK A01 T02810164  RH  049%=      5-min Rain = 0
KAI1 251611Z 21011KT 28/16 A3005 RMK A01 T02820163  RH  048%=      5-min Rain = 0
KAI1 251612Z 19009KT 28/16 A3005 RMK A01 T02810161  RH  048%=      5-min Rain = 0
KAI1 251613Z 22008KT 28/16 A3005 RMK A01 T02800163  RH  049%=      5-min Rain = 0
KAI1 251614Z 19011KT 28/16 A3005 RMK A01 T02810162  RH  049%=      5-min Rain = 0
KAI1 251615Z 20009KT 28/16 A3005 RMK A01 T02800162  RH  049%=      5-min Rain = 0
KAI1 251616Z 21006KT 28/16 A3005 RMK A01 T02810162  RH  049%=      5-min Rain = 0
KAI1 251617Z 20012KT 28/16 A3005 RMK A01 T02820164  RH  049%=      5-min Rain = 0
KAI1 251618Z 20012KT 28/16 A3005 RMK A01 T02830162  RH  048%=      5-min Rain = 0
KAI1 251619Z 20011KT 28/16 A3005 RMK A01 T02830160  RH  047%=      5-min Rain = 0
KAI1 251620Z 20007KT 28/16 A3005 RMK A01 T02810159  RH  047%=      5-min Rain = 0
KAI1 251621Z 20008KT 28/16 A3005 RMK A01 T02800159  RH  048%=      5-min Rain = 0
KAI1 251622Z 21010KT 28/16 A3005 RMK A01 T02800159  RH  048%=      5-min Rain = 0
KAI1 251623Z 22007G12KT 28/16 A3005 RMK A01 T02810162  RH  048%=      5-min Rain = 0
KAI1 251624Z 21010KT 29/16 A3005 RMK A01 T02850163  RH  047%=      5-min Rain = 0
KAI1 251625Z 21009G14KT 29/16 A3005 RMK A01 T02850160  RH  047%=      5-min Rain = 0
KAI1 251626Z 19012KT 28/16 A3005 RMK A01 T02840160  RH  047%=      5-min Rain = 0
KAI1 251627Z 20010KT 28/16 A3005 RMK A01 T02840159  RH  047%=      5-min Rain = 0
KAI1 251628Z 20012KT 28/16 A3005 RMK A01 T02840160  RH  047%=      5-min Rain = 0
KAI1 251629Z 21011KT 29/16 A3005 RMK A01 T02850160  RH  047%=      5-min Rain = 0
KAI1 251630Z 21012KT 29/16 A3005 RMK A01 T02860160  RH  046%=      5-min Rain = 0
KAI1 251631Z 21011KT 29/16 A3005 RMK A01 T02870158  RH  046%=      5-min Rain = 0
KAI1 251632Z 20012KT 28/16 A3005 RMK A01 T02840160  RH  047%=      5-min Rain = 0
KAI1 251633Z 22011KT 28/16 A3005 RMK A01 T02830160  RH  047%=      5-min Rain = 0
KAI1 251634Z 23011KT 28/16 A3005 RMK A01 T02840160  RH  047%=      5-min Rain = 0
KAI1 251635Z 21010KT 28/16 A3005 RMK A01 T02830162  RH  048%=      5-min Rain = 0
KAI1 251636Z 19012KT 29/16 A3005 RMK A01 T02860162  RH  047%=      5-min Rain = 0
KAI1 251637Z 22013KT 29/16 A3005 RMK A01 T02910161  RH  045%=      5-min Rain = 0
KAI1 251638Z 22011KT 29/16 A3005 RMK A01 T02910160  RH  045%=      5-min Rain = 0
KAI1 251639Z 22010KT 29/16 A3005 RMK A01 T02890161  RH  046%=      5-min Rain = 0
KAI1 251640Z 22010KT 29/16 A3005 RMK A01 T02880161  RH  046%=      5-min Rain = 0
KAI1 251641Z 20011KT 29/16 A3005 RMK A01 T02870163  RH  047%=      5-min Rain = 0
KAI1 251642Z 21010KT 29/16 A3005 RMK A01 T02910160  RH  045%=      5-min Rain = 0
KAI1 251643Z 22011KT 29/16 A3005 RMK A01 T02930161  RH  045%=      5-min Rain = 0
KAI1 251644Z 22009KT 29/16 A3005 RMK A01 T02920160  RH  045%=      5-min Rain = 0
KAI1 251645Z 21010KT 29/16 A3005 RMK A01 T02900163  RH  046%=      5-min Rain = 0
KAI1 251646Z 20010KT 29/16 A3005 RMK A01 T02890162  RH  046%=      5-min Rain = 0
KAI1 251647Z 19011KT 29/16 A3005 RMK A01 T02900163  RH  046%=      5-min Rain = 0
KAI1 251648Z 20011KT 29/16 A3005 RMK A01 T02920164  RH  046%=      5-min Rain = 0
KAI1 251649Z 20009KT 30/16 A3005 RMK A01 T02950162  RH  045%=      5-min Rain = 0
KAI1 251650Z 22009KT 29/16 A3005 RMK A01 T02940161  RH  045%=      5-min Rain = 0
KAI1 251651Z 21010KT 29/16 A3005 RMK A01 T02920161  RH  045%=      5-min Rain = 0
KAI1 251652Z 21008KT 29/16 A3005 RMK A01 T02920162  RH  045%=      5-min Rain = 0
KAI1 251653Z 19010KT 29/16 A3005 RMK A01 T02920162  RH  045%=      5-min Rain = 0
KAI1 251654Z 19011KT 29/16 A3004 RMK A01 T02940161  RH  045%=      5-min Rain = 0
KAI1 251655Z 19011KT 30/16 A3005 RMK A01 T02960162  RH  044%=      5-min Rain = 0
KAI1 251656Z 20010KT 30/16 A3004 RMK A01 T02960163  RH  044%=      5-min Rain = 0
KAI1 251657Z 20012KT 30/16 A3004 RMK A01 T02990164  RH  044%=      5-min Rain = 0
KAI1 251658Z 21013KT 30/16 A3004 RMK A01 T03000160  RH  043%=      5-min Rain = 0
KAI1 251659Z 22013KT 30/16 A3004 RMK A01 T02980161  RH  044%=      5-min Rain = 0
KAI1 251700Z 20011KT 30/16 A3005 RMK A01 T02960162  RH  044%=      5-min Rain = 0
KAI1 251701Z 20012KT 30/16 A3005 RMK A01 T02960161  RH  044%=      5-min Rain = 0
KAI1 251702Z 20011KT 30/16 A3005 RMK A01 T02960160  RH  044%=      5-min Rain = 0
KAI1 251703Z 22011KT 30/16 A3005 RMK A01 T02970163  RH  044%=      5-min Rain = 0
KAI1 251704Z 21012KT 30/16 A3004 RMK A01 T02990162  RH  044%=      5-min Rain = 0
KAI1 251705Z 21011KT 30/16 A3004 RMK A01 T02980162  RH  044%=      5-min Rain = 0
KAI1 251706Z 21007KT 30/16 A3005 RMK A01 T02960160  RH  044%=      5-min Rain = 0
KAI1 251707Z 19008KT 30/16 A3004 RMK A01 T02970161  RH  044%=      5-min Rain = 0
KAI1 251708Z 20009KT 30/16 A3004 RMK A01 T02970162  RH  044%=      5-min Rain = 0
KAI1 251709Z 20010KT 30/16 A3004 RMK A01 T02990164  RH  044%=      5-min Rain = 0
KAI1 251710Z 19013KT 30/16 A3004 RMK A01 T03000160  RH  043%=      5-min Rain = 0
KAI1 251711Z 20010KT 30/16 A3004 RMK A01 T03000163  RH  044%=      5-min Rain = 0
KAI1 251712Z 19010KT 30/16 A3004 RMK A01 T03030164  RH  043%=      5-min Rain = 0
KAI1 251713Z 18010KT 30/16 A3004 RMK A01 T03040162  RH  043%=      5-min Rain = 0
KAI1 251714Z 19010KT 30/17 A3004 RMK A01 T03030165  RH  043%=      5-min Rain = 0
KAI1 251715Z 18010KT 30/16 A3004 RMK A01 T03020162  RH  043%=      5-min Rain = 0
KAI1 251716Z 18009KT 30/16 A3004 RMK A01 T03020162  RH  043%=      5-min Rain = 0
KAI1 251717Z 18008KT 30/16 A3004 RMK A01 T03000161  RH  043%=      5-min Rain = 0
KAI1 251718Z 19010KT 30/16 A3004 RMK A01 T02990162  RH  044%=      5-min Rain = 0
KAI1 251719Z 22010KT 30/16 A3004 RMK A01 T03000162  RH  043%=      5-min Rain = 0
KAI1 251720Z 22011KT 30/16 A3004 RMK A01 T03020162  RH  043%=      5-min Rain = 0
KAI1 251721Z 22011KT 30/16 A3004 RMK A01 T03030160  RH  042%=      5-min Rain = 0
KAI1 251722Z 21012KT 30/16 A3004 RMK A01 T03020163  RH  043%=      5-min Rain = 0
KAI1 251723Z 21009KT 30/17 A3004 RMK A01 T03040166  RH  043%=      5-min Rain = 0
KAI1 251724Z 22008KT 31/16 A3004 RMK A01 T03070164  RH  042%=      5-min Rain = 0
KAI1 251725Z 20005KT 31/16 A3004 RMK A01 T03060163  RH  042%=      5-min Rain = 0
KAI1 251726Z 20009KT 31/17 A3004 RMK A01 T03060165  RH  043%=      5-min Rain = 0
KAI1 251727Z 19012KT 31/16 A3004 RMK A01 T03080161  RH  041%=      5-min Rain = 0
KAI1 251728Z 20007KT 31/16 A3004 RMK A01 T03080159  RH  041%=      5-min Rain = 0
KAI1 251729Z 20009KT 31/16 A3004 RMK A01 T03050161  RH  042%=      5-min Rain = 0
KAI1 251730Z 20011KT 30/16 A3004 RMK A01 T03040164  RH  043%=      5-min Rain = 0
KAI1 251731Z 20009KT 31/16 A3004 RMK A01 T03080160  RH  041%=      5-min Rain = 0
KAI1 251732Z 19011KT 31/16 A3004 RMK A01 T03080161  RH  041%=      5-min Rain = 0
KAI1 251733Z 20011KT 31/16 A3004 RMK A01 T03090159  RH  040%=      5-min Rain = 0
KAI1 251734Z 19008KT 31/16 A3004 RMK A01 T03090159  RH  040%=      5-min Rain = 0
KAI1 251735Z 18009KT 31/16 A3004 RMK A01 T03070157  RH  040%=      5-min Rain = 0
KAI1 251736Z 19011KT 31/16 A3004 RMK A01 T03080157  RH  040%=      5-min Rain = 0
KAI1 251737Z 21013KT 31/16 A3004 RMK A01 T03120158  RH  039%=      5-min Rain = 0
KAI1 251738Z 21011KT 31/15 A3004 RMK A01 T03120154  RH  038%=      5-min Rain = 0
KAI1 251739Z 22008KT 31/15 A3004 RMK A01 T03090153  RH  039%=      5-min Rain = 0
KAI1 251740Z 21008KT 31/16 A3004 RMK A01 T03080157  RH  040%=      5-min Rain = 0
KAI1 251741Z 22010KT 31/15 A3004 RMK A01 T03070154  RH  039%=      5-min Rain = 0
KAI1 251742Z 21013KT 31/15 A3004 RMK A01 T03070154  RH  040%=      5-min Rain = 0
KAI1 251743Z 21011KT 31/15 A3004 RMK A01 T03100151  RH  038%=      5-min Rain = 0
KAI1 251744Z 22010KT 31/15 A3004 RMK A01 T03120152  RH  038%=      5-min Rain = 0
KAI1 251745Z 22008KT 31/16 A3004 RMK A01 T03130158  RH  039%=      5-min Rain = 0
KAI1 251746Z 22007KT 32/16 A3004 RMK A01 T03150156  RH  038%=      5-min Rain = 0
KAI1 251747Z 21009KT 31/16 A3004 RMK A01 T03130158  RH  039%=      5-min Rain = 0
KAI1 251748Z 23008KT 31/16 A3004 RMK A01 T03120157  RH  039%=      5-min Rain = 0
KAI1 251749Z 21007KT 31/16 A3004 RMK A01 T03100158  RH  040%=      5-min Rain = 0
KAI1 251750Z 20010KT 31/16 A3004 RMK A01 T03100155  RH  039%=      5-min Rain = 0
KAI1 251751Z 20011KT 31/16 A3004 RMK A01 T03120157  RH  039%=      5-min Rain = 0
KAI1 251752Z 20010KT 31/16 A3004 RMK A01 T03140155  RH  038%=      5-min Rain = 0
KAI1 251753Z 21007KT 31/15 A3004 RMK A01 T03130150  RH  037%=      5-min Rain = 0
KAI1 251754Z 20010KT 31/15 A3003 RMK A01 T03130149  RH  037%=      5-min Rain = 0
KAI1 251755Z 22012KT 32/15 A3003 RMK A01 T03170153  RH  037%=      5-min Rain = 0
KAI1 251756Z 22010KT 32/15 A3004 RMK A01 T03180152  RH  037%=      5-min Rain = 0
KAI1 251757Z 21008KT 32/16 A3003 RMK A01 T03170156  RH  038%=      5-min Rain = 0
KAI1 251758Z 21010KT 32/16 A3003 RMK A01 T03170156  RH  038%=      5-min Rain = 0
KAI1 251759Z 19010KT 32/16 A3003 RMK A01 T03170157  RH  038%=      5-min Rain = 0
KAI1 251800Z 19010KT 32/16 A3003 RMK A01 T03170156  RH  038%=      5-min Rain = 0
KAI1 251801Z 18008KT 32/16 A3003 RMK A01 T03170155  RH  038%=      5-min Rain = 0
KAI1 251802Z 21010KT 32/16 A3003 RMK A01 T03160155  RH  038%=      5-min Rain = 0
KAI1 251803Z 22010KT 32/15 A3003 RMK A01 T03160148  RH  036%=      5-min Rain = 0
KAI1 251804Z 21010KT 32/15 A3003 RMK A01 T03170149  RH  036%=      5-min Rain = 0
KAI1 251805Z 20008KT 32/15 A3003 RMK A01 T03180150  RH  036%=      5-min Rain = 0
KAI1 251806Z 21009KT 32/15 A3003 RMK A01 T03170154  RH  037%=      5-min Rain = 0
KAI1 251807Z 20008KT 31/16 A3003 RMK A01 T03140155  RH  038%=      5-min Rain = 0
KAI1 251808Z 19011KT 32/15 A3003 RMK A01 T03150150  RH  037%=      5-min Rain = 0
KAI1 251809Z 19010KT 32/16 A3003 RMK A01 T03200155  RH  037%=      5-min Rain = 0
KAI1 251810Z 18011KT 32/15 A3003 RMK A01 T03230148  RH  035%=      5-min Rain = 0
KAI1 251811Z 21010KT 32/14 A3003 RMK A01 T03220142  RH  034%=      5-min Rain = 0
KAI1 251812Z 18012KT 32/15 A3003 RMK A01 T03200150  RH  036%=      5-min Rain = 0
KAI1 251813Z 18012KT 32/15 A3003 RMK A01 T03220153  RH  036%=      5-min Rain = 0
KAI1 251814Z 17011KT 32/15 A3003 RMK A01 T03220153  RH  036%=      5-min Rain = 0
KAI1 251815Z 17009KT 32/15 A3003 RMK A01 T03220148  RH  035%=      5-min Rain = 0
KAI1 251816Z 18011G16KT 32/15 A3003 RMK A01 T03210146  RH  035%=      5-min Rain = 0
KAI1 251817Z 17013KT 32/14 A3003 RMK A01 T03210142  RH  034%=      5-min Rain = 0
KAI1 251818Z 17012KT 33/14 A3003 RMK A01 T03250143  RH  033%=      5-min Rain = 0
KAI1 251819Z 18010KT 32/15 A3003 RMK A01 T03230145  RH  034%=      5-min Rain = 0
KAI1 251820Z 19009KT 32/15 A3003 RMK A01 T03210148  RH  035%=      5-min Rain = 0
KAI1 251821Z 20005KT 32/15 A3003 RMK A01 T03180150  RH  036%=      5-min Rain = 0
KAI1 251822Z 18005KT 32/15 A3003 RMK A01 T03180149  RH  036%=      5-min Rain = 0
KAI1 251823Z 18006KT 32/15 A3003 RMK A01 T03200148  RH  035%=      5-min Rain = 0
KAI1 251824Z 18010KT 32/15 A3003 RMK A01 T03240151  RH  035%=      5-min Rain = 0
KAI1 251825Z 19011KT 33/15 A3003 RMK A01 T03280149  RH  034%=      5-min Rain = 0
KAI1 251826Z 20010KT 33/14 A3003 RMK A01 T03280139  RH  032%=      5-min Rain = 0
KAI1 251827Z 20012KT 33/14 A3003 RMK A01 T03260143  RH  033%=      5-min Rain = 0
KAI1 251828Z 21009KT 33/14 A3003 RMK A01 T03270143  RH  033%=      5-min Rain = 0
KAI1 251829Z 20010KT 33/15 A3003 RMK A01 T03250147  RH  034%=      5-min Rain = 0
KAI1 251830Z 18010KT 32/15 A3003 RMK A01 T03220149  RH  035%=      5-min Rain = 0
KAI1 251831Z 20009KT 32/15 A3003 RMK A01 T03230145  RH  034%=      5-min Rain = 0
KAI1 251832Z 19011G16KT 32/14 A3003 RMK A01 T03240142  RH  033%=      5-min Rain = 0
KAI1 251833Z 18011KT 33/14 A3003 RMK A01 T03250140  RH  033%=      5-min Rain = 0
KAI1 251834Z 18012KT 33/14 A3003 RMK A01 T03300136  RH  031%=      5-min Rain = 0
KAI1 251835Z 19009KT 33/14 A3003 RMK A01 T03310139  RH  031%=      5-min Rain = 0
KAI1 251836Z 20010KT 33/14 A3003 RMK A01 T03340142  RH  032%=      5-min Rain = 0
KAI1 251837Z 21010KT 33/14 A3003 RMK A01 T03310138  RH  031%=      5-min Rain = 0
KAI1 251838Z 21009KT 33/13 A3003 RMK A01 T03280132  RH  030%=      5-min Rain = 0
KAI1 251839Z 19010KT 33/14 A3003 RMK A01 T03290138  RH  031%=      5-min Rain = 0
KAI1 251840Z 16011KT 33/14 A3003 RMK A01 T03310144  RH  032%=      5-min Rain = 0
KAI1 251841Z 17009KT 33/15 A3003 RMK A01 T03310145  RH  033%=      5-min Rain = 0
KAI1 251842Z 16008KT 33/15 A3003 RMK A01 T03290145  RH  033%=      5-min Rain = 0
KAI1 251843Z 17006KT 33/14 A3003 RMK A01 T03270139  RH  032%=      5-min Rain = 0
KAI1 251844Z 16007KT 33/14 A3003 RMK A01 T03250135  RH  032%=      5-min Rain = 0
KAI1 251845Z 19008G13KT 33/14 A3002 RMK A01 T03260140  RH  032%=      5-min Rain = 0
KAI1 251846Z 20012KT 33/14 A3003 RMK A01 T03300144  RH  033%=      5-min Rain = 0
KAI1 251847Z 20011KT 33/15 A3003 RMK A01 T03290146  RH  033%=      5-min Rain = 0
KAI1 251848Z 18011KT 33/14 A3003 RMK A01 T03300138  RH  031%=      5-min Rain = 0
KAI1 251849Z 15012KT 33/13 A3003 RMK A01 T03290134  RH  031%=      5-min Rain = 0
KAI1 251850Z 18015G21KT 33/14 A3002 RMK A01 T03330142  RH  032%=      5-min Rain = 0
KAI1 251851Z 18010KT 34/14 A3003 RMK A01 T03350139  RH  031%=      5-min Rain = 0
KAI1 251852Z 18013KT 34/14 A3003 RMK A01 T03390142  RH  031%=      5-min Rain = 0
KAI1 251853Z 20012KT 34/12 A3003 RMK A01 T03400120  RH  026%=      5-min Rain = 0
KAI1 251854Z 18010KT 34/11 A3003 RMK A01 T03380109  RH  025%=      5-min Rain = 0
KAI1 251855Z 18008KT 34/11 A3003 RMK A01 T03350109  RH  025%=      5-min Rain = 0
KAI1 251856Z 17010KT 33/13 A3003 RMK A01 T03340127  RH  029%=      5-min Rain = 0
KAI1 251857Z 18012KT 33/14 A3003 RMK A01 T03330140  RH  031%=      5-min Rain = 0
KAI1 251858Z 16010KT 33/14 A3003 RMK A01 T03320144  RH  032%=      5-min Rain = 0
KAI1 251859Z 17011KT 33/15 A3003 RMK A01 T03310145  RH  033%=      5-min Rain = 0
KAI1 251900Z 18013KT 33/12 A3002 RMK A01 T03320118  RH  027%=      5-min Rain = 0
KAI1 251901Z 17013KT 34/10 A3002 RMK A01 T03350098  RH  023%=      5-min Rain = 0
KAI1 251902Z 19012G17KT 34/11 A3002 RMK A01 T03360106  RH  025%=      5-min Rain = 0
KAI1 251903Z 19011KT 34/11 A3002 RMK A01 T03360112  RH  026%=      5-min Rain = 0
KAI1 251904Z 18011KT 33/11 A3002 RMK A01 T03330112  RH  026%=      5-min Rain = 0
KAI1 251905Z 18011KT 33/11 A3002 RMK A01 T03330106  RH  025%=      5-min Rain = 0
KAI1 251906Z 17015KT 33/12 A3002 RMK A01 T03340119  RH  027%=      5-min Rain = 0
KAI1 251907Z 19012KT 34/12 A3002 RMK A01 T03370124  RH  028%=      5-min Rain = 0
KAI1 251908Z 17015KT 34/12 A3002 RMK A01 T03370119  RH  027%=      5-min Rain = 0
KAI1 251909Z 17013KT 34/12 A3002 RMK A01 T03380115  RH  026%=      5-min Rain = 0
KAI1 251910Z 18018KT 34/10 A3002 RMK A01 T03390099  RH  023%=      5-min Rain = 0
KAI1 251911Z 16015KT 34/09 A3002 RMK A01 T03390094  RH  022%=      5-min Rain = 0
KAI1 251912Z 18010KT 34/10 A3002 RMK A01 T03380097  RH  023%=      5-min Rain = 0
KAI1 251913Z 22014G21KT 34/11 A3002 RMK A01 T03380112  RH  025%=      5-min Rain = 0
KAI1 251914Z 18014G19KT 34/10 A3002 RMK A01 T03370103  RH  024%=      5-min Rain = 0
KAI1 251915Z 17014KT 34/11 A3002 RMK A01 T03370112  RH  025%=      5-min Rain = 0
KAI1 251916Z 17016KT 34/11 A3002 RMK A01 T03390107  RH  024%=      5-min Rain = 0
KAI1 251917Z 17012KT 34/10 A3002 RMK A01 T03380103  RH  024%=      5-min Rain = 0
KAI1 251918Z 18011G17KT 34/11 A3002 RMK A01 T03360105  RH  024%=      5-min Rain = 0
KAI1 251919Z 18018KT 34/11 A3002 RMK A01 T03370105  RH  024%=      5-min Rain = 0
KAI1 251920Z 17015KT 34/11 A3002 RMK A01 T03370105  RH  024%=      5-min Rain = 0
KAI1 251921Z 17015KT 34/11 A3002 RMK A01 T03380106  RH  024%=      5-min Rain = 0
KAI1 251922Z 17014KT 34/11 A3002 RMK A01 T03400105  RH  024%=      5-min Rain = 0
KAI1 251923Z 18012G17KT 34/11 A3002 RMK A01 T03410111  RH  025%=      5-min Rain = 0
KAI1 251924Z 18011KT 34/12 A3002 RMK A01 T03390115  RH  026%=      5-min Rain = 0
KAI1 251925Z 16013KT 34/11 A3002 RMK A01 T03370112  RH  025%=      5-min Rain = 0
KAI1 251926Z 18013KT 34/11 A3002 RMK A01 T03400110  RH  025%=      5-min Rain = 0
KAI1 251927Z 18014KT 34/09 A3002 RMK A01 T03420086  RH  021%=      5-min Rain = 0
KAI1 251928Z 20013KT 34/09 A3002 RMK A01 T03390089  RH  021%=      5-min Rain = 0
KAI1 251929Z 19013KT 34/10 A3002 RMK A01 T03380099  RH  023%=      5-min Rain = 0
KAI1 251930Z 18012KT 34/10 A3002 RMK A01 T03380103  RH  024%=      5-min Rain = 0
KAI1 251931Z 18015G20KT 34/11 A3002 RMK A01 T03410106  RH  024%=      5-min Rain = 0
KAI1 251932Z 18015KT 34/11 A3002 RMK A01 T03410108  RH  024%=      5-min Rain = 0
KAI1 251933Z 18014G21KT 34/11 A3002 RMK A01 T03370108  RH  025%=      5-min Rain = 0
KAI1 251934Z 17019KT 34/08 A3002 RMK A01 T03390080  RH  020%=      5-min Rain = 0
KAI1 251935Z 17019KT 35/09 A3002 RMK A01 T03450091  RH  021%=      5-min Rain = 0
KAI1 251936Z 18018KT 35/09 A3002 RMK A01 T03450090  RH  021%=      5-min Rain = 0
KAI1 251937Z 19015KT 34/09 A3002 RMK A01 T03410087  RH  021%=      5-min Rain = 0
KAI1 251938Z 19014KT 34/10 A3002 RMK A01 T03410096  RH  022%=      5-min Rain = 0
KAI1 251939Z 18013KT 34/10 A3002 RMK A01 T03380099  RH  023%=      5-min Rain = 0
KAI1 251940Z 17015KT 34/11 A3002 RMK A01 T03370105  RH  024%=      5-min Rain = 0
KAI1 251941Z 17014KT 34/11 A3002 RMK A01 T03380107  RH  024%=      5-min Rain = 0
KAI1 251942Z 17015KT 34/10 A3002 RMK A01 T03400104  RH  024%=      5-min Rain = 0
KAI1 251943Z 18011G16KT 34/10 A3002 RMK A01 T03390102  RH  023%=      5-min Rain = 0
KAI1 251944Z 18014KT 34/10 A3001 RMK A01 T03370102  RH  024%=      5-min Rain = 0
KAI1 251945Z 18015KT 34/10 A3001 RMK A01 T03370099  RH  023%=      5-min Rain = 0
KAI1 251946Z 18015KT 34/10 A3001 RMK A01 T03380102  RH  024%=      5-min Rain = 0
KAI1 251947Z 18015KT 34/10 A3001 RMK A01 T03390099  RH  023%=      5-min Rain = 0
KAI1 251948Z 18013KT 34/10 A3001 RMK A01 T03390104  RH  024%=      5-min Rain = 0
KAI1 251949Z 18012G17KT 34/10 A3001 RMK A01 T03400102  RH  023%=      5-min Rain = 0
KAI1 251950Z 18012KT 34/10 A3001 RMK A01 T03400100  RH  023%=      5-min Rain = 0
KAI1 251951Z 19011KT 34/10 A3001 RMK A01 T03430100  RH  023%=      5-min Rain = 0
KAI1 251952Z 19013G23KT 34/11 A3001 RMK A01 T03440107  RH  024%=      5-min Rain = 0
KAI1 251953Z 17019KT 34/10 A3001 RMK A01 T03440099  RH  022%=      5-min Rain = 0
KAI1 251954Z 18015KT 34/09 A3001 RMK A01 T03430094  RH  022%=      5-min Rain = 0
KAI1 251955Z 18015KT 34/09 A3001 RMK A01 T03410094  RH  022%=      5-min Rain = 0
KAI1 251956Z 18014KT 34/10 A3001 RMK A01 T03390096  RH  023%=      5-min Rain = 0
KAI1 251957Z 17015KT 34/10 A3001 RMK A01 T03390104  RH  024%=      5-min Rain = 0
KAI1 251958Z 17015KT 34/10 A3001 RMK A01 T03410102  RH  023%=      5-min Rain = 0
KAI1 251959Z 18011KT 34/10 A3001 RMK A01 T03430102  RH  023%=      5-min Rain = 0
KAI1 252000Z 18014KT 34/11 A3001 RMK A01 T03440110  RH  024%=      5-min Rain = 0
KAI1 252001Z 17012KT 35/11 A3001 RMK A01 T03450106  RH  023%=      5-min Rain = 0
KAI1 252002Z 18012KT 34/11 A3001 RMK A01 T03430106  RH  024%=      5-min Rain = 0
KAI1 252003Z 20014KT 34/11 A3001 RMK A01 T03400111  RH  025%=      5-min Rain = 0
KAI1 252004Z 20014KT 34/11 A3001 RMK A01 T03390112  RH  025%=      5-min Rain = 0
KAI1 252005Z 20013KT 34/12 A3001 RMK A01 T03380116  RH  026%=      5-min Rain = 0
KAI1 252006Z 18010KT 34/12 A3001 RMK A01 T03390118  RH  026%=      5-min Rain = 0
KAI1 252007Z 17015KT 34/12 A3001 RMK A01 T03440122  RH  026%=      5-min Rain = 0
KAI1 252008Z 16016KT 35/12 A3001 RMK A01 T03490124  RH  026%=      5-min Rain = 0
KAI1 252009Z 16016KT 35/12 A3001 RMK A01 T03490122  RH  025%=      5-min Rain = 0
KAI1 252010Z 15010KT 35/12 A3001 RMK A01 T03450117  RH  025%=      5-min Rain = 0
KAI1 252011Z 14011KT 34/12 A3001 RMK A01 T03400120  RH  026%=      5-min Rain = 0
KAI1 252012Z 14015KT 34/12 A3001 RMK A01 T03410121  RH  026%=      5-min Rain = 0
KAI1 252013Z 15015KT 34/11 A3001 RMK A01 T03420114  RH  025%=      5-min Rain = 0
KAI1 252014Z 16017KT 34/11 A30 RMK A01 T03420109  RH  024%=      5-min Rain = 0
KAI1 252015Z 17015KT 34/11 A30 RMK A01 T03440108  RH  024%=      5-min Rain = 0
KAI1 252016Z 19010KT 34/11 A30 RMK A01 T03440107  RH  024%=      5-min Rain = 0
KAI1 252017Z 20009G15KT 34/11 A30 RMK A01 T03410106  RH  024%=      5-min Rain = 0
KAI1 252018Z 19012KT 34/11 A30 RMK A01 T03390113  RH  025%=      5-min Rain = 0
KAI1 252019Z 17017KT 34/11 A30 RMK A01 T03410110  RH  025%=      5-min Rain = 0
KAI1 252020Z 16018KT 35/11 A30 RMK A01 T03490107  RH  023%=      5-min Rain = 0
KAI1 252021Z 15017KT 35/11 A30 RMK A01 T03520105  RH  022%=      5-min Rain = 0
KAI1 252022Z 17014KT 35/11 A30 RMK A01 T03510106  RH  023%=      5-min Rain = 0
KAI1 252023Z 17016KT 35/11 A30 RMK A01 T03480107  RH  023%=      5-min Rain = 0
KAI1 252024Z 16020KT 35/11 A30 RMK A01 T03470109  RH  024%=      5-min Rain = 0
KAI1 252025Z 16016G21KT 35/11 A30 RMK A01 T03480109  RH  023%=      5-min Rain = 0
KAI1 252026Z 16015KT 35/11 A30 RMK A01 T03490109  RH  023%=      5-min Rain = 0
KAI1 252027Z 15014KT 35/11 A30 RMK A01 T03510107  RH  023%=      5-min Rain = 0
KAI1 252028Z 16016KT 35/10 A30 RMK A01 T03500104  RH  022%=      5-min Rain = 0
KAI1 252029Z 15016KT 35/10 A30 RMK A01 T03490102  RH  022%=      5-min Rain = 0
KAI1 252030Z 16014KT 35/10 A30 RMK A01 T03510100  RH  022%=      5-min Rain = 0
KAI1 252031Z 15019KT 35/11 A30 RMK A01 T03520106  RH  022%=      5-min Rain = 0
KAI1 252032Z 15017KT 35/10 A30 RMK A01 T03520104  RH  022%=      5-min Rain = 0
KAI1 252033Z 15016KT 35/10 A30 RMK A01 T03490103  RH  022%=      5-min Rain = 0
KAI1 252034Z 15017KT 35/10 A30 RMK A01 T03470102  RH  022%=      5-min Rain = 0
KAI1 252035Z 17018KT 35/10 A30 RMK A01 T03480097  RH  022%=      5-min Rain = 0
KAI1 252036Z 18017KT 35/09 A30 RMK A01 T03490093  RH  021%=      5-min Rain = 0
KAI1 252037Z 17016KT 35/09 A30 RMK A01 T03480091  RH  021%=      5-min Rain = 0
KAI1 252038Z 18018KT 35/09 A2999 RMK A01 T03470093  RH  021%=      5-min Rain = 0
KAI1 252039Z 19016KT 35/10 A30 RMK A01 T03480098  RH  022%=      5-min Rain = 0
KAI1 252040Z 19016KT 35/10 A30 RMK A01 T03470095  RH  022%=      5-min Rain = 0
KAI1 252041Z 20012KT 34/10 A30 RMK A01 T03430098  RH  022%=      5-min Rain = 0
KAI1 252042Z 18013KT 34/10 A30 RMK A01 T03420102  RH  023%=      5-min Rain = 0
KAI1 252043Z 17017KT 34/10 A2999 RMK A01 T03420103  RH  023%=      5-min Rain = 0
KAI1 252044Z 17015KT 35/11 A2999 RMK A01 T03460105  RH  023%=      5-min Rain = 0
KAI1 252045Z 17017KT 35/10 A2999 RMK A01 T03510102  RH  022%=      5-min Rain = 0
KAI1 252046Z 17014KT 35/10 A2999 RMK A01 T03520101  RH  022%=      5-min Rain = 0
KAI1 252047Z 17015KT 35/11 A2999 RMK A01 T03480106  RH  023%=      5-min Rain = 0
KAI1 252048Z 16015KT 35/11 A2999 RMK A01 T03490110  RH  023%=      5-min Rain = 0
KAI1 252049Z 17017KT 36/11 A2999 RMK A01 T03550110  RH  023%=      5-min Rain = 0
KAI1 252050Z 15014KT 35/11 A2999 RMK A01 T03540107  RH  022%=      5-min Rain = 0
KAI1 252051Z 17017G23KT 35/11 A2999 RMK A01 T03510107  RH  023%=      5-min Rain = 0
KAI1 252052Z 18014KT 35/10 A2999 RMK A01 T03490104  RH  022%=      5-min Rain = 0
KAI1 252053Z 19013KT 35/11 A2999 RMK A01 T03450107  RH  023%=      5-min Rain = 0
KAI1 252054Z 19013KT 35/11 A2999 RMK A01 T03460110  RH  024%=      5-min Rain = 0
KAI1 252055Z 17014KT 35/11 A2999 RMK A01 T03470107  RH  023%=      5-min Rain = 0
KAI1 252056Z 17012KT 35/10 A2999 RMK A01 T03470104  RH  023%=      5-min Rain = 0
KAI1 252057Z 17019KT 35/10 A2999 RMK A01 T03460103  RH  023%=      5-min Rain = 0
KAI1 252058Z 16015KT 35/10 A2999 RMK A01 T03460100  RH  022%=      5-min Rain = 0
KAI1 252059Z 17015KT 35/10 A2999 RMK A01 T03450099  RH  022%=      5-min Rain = 0
KAI1 252100Z 17017KT 35/10 A2999 RMK A01 T03450099  RH  022%=      5-min Rain = 0
KAI1 252101Z 17016KT 35/10 A2999 RMK A01 T03460101  RH  023%=      5-min Rain = 0
KAI1 252102Z 18017KT 35/10 A2999 RMK A01 T03460104  RH  023%=      5-min Rain = 0
KAI1 252103Z 19016KT 35/10 A2999 RMK A01 T03470101  RH  022%=      5-min Rain = 0
KAI1 252104Z 18017KT 35/10 A2999 RMK A01 T03470104  RH  023%=      5-min Rain = 0
KAI1 252105Z 17015KT 35/11 A2999 RMK A01 T03480108  RH  023%=      5-min Rain = 0
KAI1 252106Z 15013KT 35/11 A2999 RMK A01 T03480112  RH  024%=      5-min Rain = 0
KAI1 252107Z 15013KT 35/12 A2998 RMK A01 T03490116  RH  024%=      5-min Rain = 0
KAI1 252108Z 17015KT 35/11 A2998 RMK A01 T03530112  RH  023%=      5-min Rain = 0
KAI1 252109Z 17019KT 36/11 A2998 RMK A01 T03550107  RH  022%=      5-min Rain = 0
KAI1 252110Z 19017KT 36/11 A2998 RMK A01 T03550109  RH  022%=      5-min Rain = 0
KAI1 252111Z 18013KT 35/11 A2998 RMK A01 T03530109  RH  023%=      5-min Rain = 0
KAI1 252112Z 17013G19KT 35/11 A2998 RMK A01 T03510105  RH  022%=      5-min Rain = 0
KAI1 252113Z 17017KT 35/12 A2998 RMK A01 T03530119  RH  024%=      5-min Rain = 0
KAI1 252114Z 16013KT 35/12 A2998 RMK A01 T03520120  RH  025%=      5-min Rain = 0
KAI1 252115Z 16017KT 35/12 A2998 RMK A01 T03520120  RH  025%=      5-min Rain = 0
KAI1 252116Z 15016KT 35/12 A2998 RMK A01 T03540122  RH  025%=      5-min Rain = 0
KAI1 252117Z 15019KT 35/12 A2998 RMK A01 T03530123  RH  025%=      5-min Rain = 0
KAI1 252118Z 15016KT 35/12 A2998 RMK A01 T03510124  RH  025%=      5-min Rain = 0
KAI1 252119Z 16017KT 35/13 A2998 RMK A01 T03490127  RH  026%=      5-min Rain = 0
KAI1 252120Z 16016KT 35/13 A2998 RMK A01 T03490128  RH  026%=      5-min Rain = 0
KAI1 252121Z 16015KT 35/13 A2998 RMK A01 T03460129  RH  027%=      5-min Rain = 0
KAI1 252122Z 17018KT 35/14 A2998 RMK A01 T03480137  RH  028%=      5-min Rain = 0
KAI1 252123Z 16021G27KT 35/14 A2997 RMK A01 T03520143  RH  029%=      5-min Rain = 0
KAI1 252124Z 16022G27KT 35/14 A2997 RMK A01 T03530141  RH  028%=      5-min Rain = 0
KAI1 252125Z 16019KT 35/14 A2998 RMK A01 T03480140  RH  029%=      5-min Rain = 0
KAI1 252126Z 17016KT 35/14 A2998 RMK A01 T03460139  RH  029%=      5-min Rain = 0
KAI1 252127Z 16017KT 34/14 A2997 RMK A01 T03440141  RH  029%=      5-min Rain = 0
KAI1 252128Z 16018KT 35/14 A2997 RMK A01 T03450140  RH  029%=      5-min Rain = 0
KAI1 252129Z 14016KT 35/14 A2997 RMK A01 T03460143  RH  029%=      5-min Rain = 0
KAI1 252130Z 14019G26KT 35/14 A2997 RMK A01 T03470143  RH  029%=      5-min Rain = 0
KAI1 252131Z 15020KT 35/14 A2997 RMK A01 T03470137  RH  028%=      5-min Rain = 0
KAI1 252132Z 15019KT 35/14 A2997 RMK A01 T03480141  RH  029%=      5-min Rain = 0
KAI1 252133Z 15020KT 35/14 A2997 RMK A01 T03490144  RH  029%=      5-min Rain = 0
KAI1 252134Z 16018KT 35/14 A2997 RMK A01 T03490143  RH  029%=      5-min Rain = 0
KAI1 252135Z 15017KT 35/15 A2997 RMK A01 T03490145  RH  029%=      5-min Rain = 0
KAI1 252136Z 15017KT 35/15 A2997 RMK A01 T03470146  RH  030%=      5-min Rain = 0
KAI1 252137Z 14017KT 34/14 A2997 RMK A01 T03440143  RH  030%=      5-min Rain = 0
KAI1 252138Z 15022KT 34/14 A2997 RMK A01 T03430143  RH  030%=      5-min Rain = 0
KAI1 252139Z 17021KT 35/14 A2996 RMK A01 T03450137  RH  029%=      5-min Rain = 0
KAI1 252140Z 16019KT 35/14 A2996 RMK A01 T03450139  RH  029%=      5-min Rain = 0
KAI1 252141Z 14018G23KT 35/14 A2996 RMK A01 T03450142  RH  029%=      5-min Rain = 0
KAI1 252142Z 15023G30KT 35/14 A2996 RMK A01 T03460144  RH  030%=      5-min Rain = 0
KAI1 252143Z 14021KT 35/15 A2996 RMK A01 T03460145  RH  030%=      5-min Rain = 0
KAI1 252144Z 14018KT 35/15 A2996 RMK A01 T03460148  RH  031%=      5-min Rain = 0
KAI1 252145Z 14017KT 35/14 A2996 RMK A01 T03450143  RH  030%=      5-min Rain = 0
KAI1 252146Z 15019G24KT 34/14 A2996 RMK A01 T03430143  RH  030%=      5-min Rain = 0
KAI1 252147Z 16019KT 34/14 A2996 RMK A01 T03440139  RH  029%=      5-min Rain = 0
KAI1 252148Z 16017KT 35/14 A2996 RMK A01 T03450137  RH  029%=      5-min Rain = 0
KAI1 252149Z 16019KT 35/14 A2996 RMK A01 T03450139  RH  029%=      5-min Rain = 0
KAI1 252150Z 16021KT 35/14 A2996 RMK A01 T03470139  RH  029%=      5-min Rain = 0
KAI1 252151Z 16019G24KT 35/14 A2996 RMK A01 T03490141  RH  029%=      5-min Rain = 0
KAI1 252152Z 16023KT 35/14 A2996 RMK A01 T03490138  RH  028%=      5-min Rain = 0
KAI1 252153Z 16020KT 35/13 A2996 RMK A01 T03480132  RH  027%=      5-min Rain = 0
KAI1 252154Z 17021KT 35/13 A2996 RMK A01 T03470134  RH  028%=      5-min Rain = 0
KAI1 252155Z 16022KT 34/14 A2996 RMK A01 T03440140  RH  029%=      5-min Rain = 0
KAI1 252156Z 17020KT 34/15 A2996 RMK A01 T03430146  RH  031%=      5-min Rain = 0
KAI1 252157Z 17019KT 34/15 A2996 RMK A01 T03420146  RH  031%=      5-min Rain = 0
KAI1 252158Z 16020G25KT 34/15 A2996 RMK A01 T03430149  RH  031%=      5-min Rain = 0
KAI1 252159Z 16023KT 35/15 A2996 RMK A01 T03460151  RH  031%=      5-min Rain = 0
KAI1 252200Z 15021KT 35/15 A2996 RMK A01 T03450149  RH  031%=      5-min Rain = 0
KAI1 252201Z 16021KT 35/15 A2996 RMK A01 T03450150  RH  031%=      5-min Rain = 0
KAI1 252202Z 15019KT 34/15 A2996 RMK A01 T03440148  RH  031%=      5-min Rain = 0
KAI1 252203Z 16019KT 35/15 A2996 RMK A01 T03450149  RH  031%=      5-min Rain = 0
KAI1 252204Z 16020KT 35/15 A2996 RMK A01 T03450147  RH  031%=      5-min Rain = 0
KAI1 252205Z 17019KT 34/15 A2996 RMK A01 T03420148  RH  031%=      5-min Rain = 0
KAI1 252206Z 16020KT 34/15 A2996 RMK A01 T03400147  RH  031%=      5-min Rain = 0
KAI1 252207Z 16019KT 34/15 A2996 RMK A01 T03390147  RH  032%=      5-min Rain = 0
KAI1 252208Z 17017KT 34/15 A2996 RMK A01 T03390147  RH  032%=      5-min Rain = 0
KAI1 252209Z 17022KT 34/15 A2996 RMK A01 T03400147  RH  031%=      5-min Rain = 0
KAI1 252210Z 17021KT 34/15 A2996 RMK A01 T03400146  RH  031%=      5-min Rain = 0
KAI1 252211Z 16018G23KT 34/15 A2996 RMK A01 T03410146  RH  031%=      5-min Rain = 0
KAI1 252212Z 16020KT 34/15 A2996 RMK A01 T03440145  RH  030%=      5-min Rain = 0
KAI1 252213Z 17020KT 34/14 A2996 RMK A01 T03430143  RH  030%=      5-min Rain = 0
KAI1 252214Z 16020KT 34/14 A2996 RMK A01 T03410139  RH  030%=      5-min Rain = 0
KAI1 252215Z 16019KT 34/14 A2996 RMK A01 T03400138  RH  030%=      5-min Rain = 0
KAI1 252216Z 16017KT 34/14 A2996 RMK A01 T03380138  RH  030%=      5-min Rain = 0
KAI1 252217Z 17020KT 34/14 A2996 RMK A01 T03400139  RH  030%=      5-min Rain = 0
KAI1 252218Z 16018KT 34/14 A2996 RMK A01 T03400141  RH  030%=      5-min Rain = 0
KAI1 252219Z 16017KT 34/14 A2996 RMK A01 T03390141  RH  030%=      5-min Rain = 0
KAI1 252220Z 16019KT 34/14 A2996 RMK A01 T03400143  RH  031%=      5-min Rain = 0
KAI1 252221Z 16018KT 34/14 A2996 RMK A01 T03420143  RH  030%=      5-min Rain = 0
KAI1 252222Z 16018KT 34/14 A2996 RMK A01 T03420144  RH  030%=      5-min Rain = 0
KAI1 252223Z 16019KT 34/14 A2996 RMK A01 T03430144  RH  030%=      5-min Rain = 0
KAI1 252224Z 16020KT 34/14 A2995 RMK A01 T03440140  RH  029%=      5-min Rain = 0
KAI1 252225Z 16017KT 34/14 A2996 RMK A01 T03430139  RH  029%=      5-min Rain = 0
KAI1 252226Z 16019KT 34/14 A2995 RMK A01 T03420140  RH  030%=      5-min Rain = 0
KAI1 252227Z 16017KT 34/14 A2995 RMK A01 T03420141  RH  030%=      5-min Rain = 0
KAI1 252228Z 16018KT 34/14 A2995 RMK A01 T03420141  RH  030%=      5-min Rain = 0
KAI1 252229Z 15020KT 34/14 A2995 RMK A01 T03410142  RH  030%=      5-min Rain = 0
KAI1 252230Z 15020KT 34/15 A2995 RMK A01 T03410145  RH  031%=      5-min Rain = 0
KAI1 252231Z 16017KT 34/14 A2995 RMK A01 T03420141  RH  030%=      5-min Rain = 0
KAI1 252232Z 16017KT 34/14 A2995 RMK A01 T03440139  RH  029%=      5-min Rain = 0
KAI1 252233Z 16016KT 35/14 A2995 RMK A01 T03450138  RH  029%=      5-min Rain = 0
KAI1 252234Z 16016KT 35/14 A2995 RMK A01 T03460137  RH  029%=      5-min Rain = 0
KAI1 252235Z 16019KT 35/14 A2995 RMK A01 T03480136  RH  028%=      5-min Rain = 0
KAI1 252236Z 16017KT 35/14 A2995 RMK A01 T03480139  RH  028%=      5-min Rain = 0
KAI1 252237Z 17019KT 35/14 A2995 RMK A01 T03470141  RH  029%=      5-min Rain = 0
KAI1 252238Z 16020KT 35/14 A2995 RMK A01 T03460141  RH  029%=      5-min Rain = 0
KAI1 252239Z 16021KT 35/14 A2995 RMK A01 T03450140  RH  029%=      5-min Rain = 0
KAI1 252240Z 17022KT 34/14 A2995 RMK A01 T03440136  RH  029%=      5-min Rain = 0
KAI1 252241Z 16022KT 34/13 A2995 RMK A01 T03440134  RH  028%=      5-min Rain = 0
KAI1 252242Z 15021KT 34/13 A2995 RMK A01 T03430131  RH  028%=      5-min Rain = 0
KAI1 252243Z 16018KT 34/13 A2995 RMK A01 T03430128  RH  027%=      5-min Rain = 0
KAI1 252244Z 16015KT 34/13 A2995 RMK A01 T03430128  RH  027%=      5-min Rain = 0
KAI1 252245Z 16019G25KT 34/14 A2995 RMK A01 T03440137  RH  029%=      5-min Rain = 0
KAI1 252246Z 16020KT 35/14 A2995 RMK A01 T03450142  RH  030%=      5-min Rain = 0
KAI1 252247Z 16021KT 34/14 A2995 RMK A01 T03440141  RH  030%=      5-min Rain = 0
KAI1 252248Z 16022KT 34/14 A2995 RMK A01 T03430140  RH  029%=      5-min Rain = 0
KAI1 252249Z 17022KT 34/14 A2995 RMK A01 T03430139  RH  029%=      5-min Rain = 0
KAI1 252250Z 17021KT 34/14 A2995 RMK A01 T03410137  RH  029%=      5-min Rain = 0
KAI1 252251Z 17019KT 34/13 A2995 RMK A01 T03410133  RH  029%=      5-min Rain = 0
KAI1 252252Z 18017KT 34/13 A2995 RMK A01 T03420131  RH  028%=      5-min Rain = 0
KAI1 252253Z 16018KT 34/14 A2995 RMK A01 T03430136  RH  029%=      5-min Rain = 0
KAI1 252254Z 16022KT 34/14 A2995 RMK A01 T03420142  RH  030%=      5-min Rain = 0
KAI1 252255Z 15023KT 34/15 A2995 RMK A01 T03410146  RH  031%=      5-min Rain = 0
KAI1 252256Z 15023KT 34/15 A2995 RMK A01 T03400149  RH  032%=      5-min Rain = 0
KAI1 252257Z 15021KT 34/15 A2995 RMK A01 T03390150  RH  032%=      5-min Rain = 0
KAI1 252258Z 15022KT 34/15 A2995 RMK A01 T03390152  RH  033%=      5-min Rain = 0
KAI1 252259Z 14020KT 34/15 A2995 RMK A01 T03370153  RH  033%=      5-min Rain = 0
KAI1 252300Z 14022KT 34/15 A2995 RMK A01 T03350154  RH  034%=      5-min Rain = 0
KAI1 252301Z 15023KT 34/15 A2994 RMK A01 T03360146  RH  032%=      5-min Rain = 0
KAI1 252302Z 16023KT 34/15 A2994 RMK A01 T03380146  RH  031%=      5-min Rain = 0
KAI1 252303Z 16022KT 34/15 A2994 RMK A01 T03390146  RH  031%=      5-min Rain = 0
KAI1 252304Z 16020KT 34/15 A2994 RMK A01 T03380147  RH  032%=      5-min Rain = 0
KAI1 252305Z 16023G28KT 34/15 A2994 RMK A01 T03390148  RH  032%=      5-min Rain = 0
KAI1 252306Z 16023KT 34/15 A2994 RMK A01 T03400145  RH  031%=      5-min Rain = 0
KAI1 252307Z 17022KT 34/14 A2994 RMK A01 T03400144  RH  031%=      5-min Rain = 0
KAI1 252308Z 17022KT 34/14 A2994 RMK A01 T03390144  RH  031%=      5-min Rain = 0
KAI1 252309Z 16020KT 34/15 A2994 RMK A01 T03370145  RH  031%=      5-min Rain = 0
KAI1 252310Z 16022KT 34/14 A2994 RMK A01 T03360144  RH  032%=      5-min Rain = 0
KAI1 252311Z 15020KT 34/14 A2994 RMK A01 T03360142  RH  031%=      5-min Rain = 0
KAI1 252312Z 15019KT 34/14 A2994 RMK A01 T03370141  RH  031%=      5-min Rain = 0
KAI1 252313Z 16021KT 34/14 A2994 RMK A01 T03390144  RH  031%=      5-min Rain = 0
KAI1 252314Z 16022KT 34/15 A2994 RMK A01 T03400146  RH  031%=      5-min Rain = 0
KAI1 252315Z 16020KT 34/14 A2994 RMK A01 T03370144  RH  031%=      5-min Rain = 0
KAI1 252316Z 17023KT 34/14 A2994 RMK A01 T03370141  RH  031%=      5-min Rain = 0
KAI1 252317Z 15022KT 34/14 A2994 RMK A01 T03360141  RH  031%=      5-min Rain = 0
KAI1 252318Z 16021G27KT 34/14 A2994 RMK A01 T03360142  RH  031%=      5-min Rain = 0
KAI1 252319Z 16023KT 34/14 A2993 RMK A01 T03370143  RH  031%=      5-min Rain = 0
KAI1 252320Z 16023KT 34/15 A2993 RMK A01 T03370147  RH  032%=      5-min Rain = 0
KAI1 252321Z 15023G29KT 34/15 A2993 RMK A01 T03370147  RH  032%=      5-min Rain = 0
KAI1 252322Z 16023G28KT 34/15 A2993 RMK A01 T03370147  RH  032%=      5-min Rain = 0
KAI1 252323Z 16024G30KT 34/15 A2993 RMK A01 T03370145  RH  032%=      5-min Rain = 0
KAI1 252324Z 16023KT 34/15 A2993 RMK A01 T03380145  RH  031%=      5-min Rain = 0
KAI1 252325Z 16025KT 34/14 A2993 RMK A01 T03370144  RH  031%=      5-min Rain = 0
KAI1 252326Z 16027KT 34/14 A2993 RMK A01 T03360141  RH  031%=      5-min Rain = 0
KAI1 252327Z 15025KT 34/14 A2993 RMK A01 T03350139  RH  031%=      5-min Rain = 0
KAI1 252328Z 16022KT 34/14 A2993 RMK A01 T03350138  RH  030%=      5-min Rain = 0
KAI1 252329Z 15022KT 34/14 A2993 RMK A01 T03350138  RH  030%=      5-min Rain = 0
KAI1 252330Z 15021G26KT 34/14 A2993 RMK A01 T03350139  RH  031%=      5-min Rain = 0
KAI1 252331Z 16022KT 34/14 A2993 RMK A01 T03350143  RH  031%=      5-min Rain = 0
KAI1 252332Z 15021KT 33/15 A2993 RMK A01 T03340145  RH  032%=      5-min Rain = 0
KAI1 252333Z 15023G29KT 33/15 A2993 RMK A01 T03340145  RH  032%=      5-min Rain = 0
KAI1 252334Z 15023KT 34/15 A2993 RMK A01 T03350146  RH  032%=      5-min Rain = 0
KAI1 252335Z 16020G25KT 33/15 A2993 RMK A01 T03340147  RH  032%=      5-min Rain = 0
KAI1 252336Z 15022KT 33/15 A2993 RMK A01 T03340147  RH  032%=      5-min Rain = 0
KAI1 252337Z 15024KT 33/15 A2993 RMK A01 T03340146  RH  032%=      5-min Rain = 0
KAI1 252338Z 15023G28KT 33/15 A2993 RMK A01 T03320146  RH  033%=      5-min Rain = 0
KAI1 252339Z 15022G28KT 33/15 A2993 RMK A01 T03320147  RH  033%=      5-min Rain = 0
KAI1 252340Z 15022KT 33/15 A2993 RMK A01 T03320146  RH  033%=      5-min Rain = 0
KAI1 252341Z 15025KT 33/15 A2994 RMK A01 T03320147  RH  033%=      5-min Rain = 0
KAI1 252342Z 15025KT 33/15 A2993 RMK A01 T03310148  RH  033%=      5-min Rain = 0
KAI1 252343Z 15025KT 33/15 A2994 RMK A01 T03310150  RH  034%=      5-min Rain = 0
KAI1 252344Z 15023KT 33/15 A2994 RMK A01 T03310152  RH  034%=      5-min Rain = 0
KAI1 252345Z 15020KT 33/15 A2994 RMK A01 T03310153  RH  034%=      5-min Rain = 0
KAI1 252346Z 15021KT 33/15 A2994 RMK A01 T03300154  RH  035%=      5-min Rain = 0
KAI1 252347Z 14022KT 33/15 A2994 RMK A01 T03280154  RH  035%=      5-min Rain = 0
KAI1 252348Z 14022KT 33/15 A2995 RMK A01 T03270153  RH  035%=      5-min Rain = 0
KAI1 252349Z 15019KT 33/16 A2995 RMK A01 T03270155  RH  036%=      5-min Rain = 0
KAI1 252350Z 14021KT 33/16 A2995 RMK A01 T03280155  RH  035%=      5-min Rain = 0
KAI1 252351Z 15025KT 33/16 A2995 RMK A01 T03270156  RH  036%=      5-min Rain = 0
KAI1 252352Z 15024KT 33/16 A2995 RMK A01 T03260155  RH  036%=      5-min Rain = 0
KAI1 252353Z 15022KT 33/16 A2995 RMK A01 T03250155  RH  036%=      5-min Rain = 0
KAI1 252354Z 14022KT 32/15 A2996 RMK A01 T03240154  RH  036%=      5-min Rain = 0
KAI1 252355Z 14020G25KT 32/15 A2996 RMK A01 T03230154  RH  036%=      5-min Rain = 0
KAI1 252356Z 14021KT 32/15 A2996 RMK A01 T03230154  RH  036%=      5-min Rain = 0
KAI1 252357Z 14023KT 32/15 A2996 RMK A01 T03220153  RH  036%=      5-min Rain = 0
KAI1 252358Z 14023KT 32/15 A2996 RMK A01 T03220154  RH  036%=      5-min Rain = 0
KAI1 252359Z 14021G26KT 32/15 A2996 RMK A01 T03210154  RH  037%=      5-min Rain = 0
KAI1 260000Z 14022KT 32/15 A2996 RMK A01 T03200154  RH  037%=      5-min Rain = 0
KAI1 260001Z 14024KT 32/16 A2996 RMK A01 T03200155  RH  037%=      5-min Rain = 0
KAI1 260002Z 14022KT 32/15 A2996 RMK A01 T03190154  RH  037%=      5-min Rain = 0
KAI1 260003Z 14021KT 32/15 A2996 RMK A01 T03190154  RH  037%=      5-min Rain = 0
KAI1 260004Z 14019KT 32/16 A2997 RMK A01 T03190156  RH  037%=      5-min Rain = 0
KAI1 260005Z 14020G25KT 32/16 A2997 RMK A01 T03210157  RH  037%=      5-min Rain = 0
KAI1 260006Z 14023KT 32/16 A2996 RMK A01 T03220155  RH  037%=      5-min Rain = 0
KAI1 260007Z 14023KT 32/16 A2996 RMK A01 T03210155  RH  037%=      5-min Rain = 0
KAI1 260008Z 15025KT 32/16 A2996 RMK A01 T03200155  RH  037%=      5-min Rain = 0
KAI1 260009Z 15022KT 32/15 A2996 RMK A01 T03200154  RH  037%=      5-min Rain = 0
KAI1 260010Z 15022G28KT 32/16 A2996 RMK A01 T03230155  RH  036%=      5-min Rain = 0
KAI1 260011Z 15023KT 32/15 A2996 RMK A01 T03240154  RH  036%=      5-min Rain = 0
KAI1 260012Z 15020KT 32/16 A2996 RMK A01 T03240155  RH  036%=      5-min Rain = 0
KAI1 260013Z 14020G25KT 32/16 A2996 RMK A01 T03220157  RH  037%=      5-min Rain = 0
KAI1 260014Z 14020KT 32/16 A2996 RMK A01 T03210157  RH  037%=      5-min Rain = 0
KAI1 260015Z 14019G24KT 32/16 A2996 RMK A01 T03210158  RH  037%=      5-min Rain = 0
KAI1 260016Z 14022KT 32/16 A2996 RMK A01 T03210155  RH  037%=      5-min Rain = 0
KAI1 260017Z 15023KT 32/15 A2996 RMK A01 T03210154  RH  037%=      5-min Rain = 0
KAI1 260018Z 14022KT 32/15 A2996 RMK A01 T03200153  RH  036%=      5-min Rain = 0
KAI1 260019Z 15024KT 32/15 A2996 RMK A01 T03190153  RH  037%=      5-min Rain = 0
KAI1 260020Z 14025KT 32/15 A2996 RMK A01 T03180153  RH  037%=      5-min Rain = 0
KAI1 260021Z 14024KT 32/15 A2996 RMK A01 T03170153  RH  037%=      5-min Rain = 0
KAI1 260022Z 14024KT 32/15 A2996 RMK A01 T03160152  RH  037%=      5-min Rain = 0
KAI1 260023Z 14025KT 32/15 A2995 RMK A01 T03150154  RH  038%=      5-min Rain = 0
KAI1 260024Z 15022KT 31/15 A2996 RMK A01 T03140154  RH  038%=      5-min Rain = 0
KAI1 260025Z 15024KT 31/15 A2995 RMK A01 T03140154  RH  038%=      5-min Rain = 0
KAI1 260026Z 14024KT 31/16 A2995 RMK A01 T03140155  RH  038%=      5-min Rain = 0
KAI1 260027Z 15021KT 31/16 A2995 RMK A01 T03140157  RH  039%=      5-min Rain = 0
KAI1 260028Z 15023KT 31/16 A2995 RMK A01 T03130158  RH  039%=      5-min Rain = 0
KAI1 260029Z 16024KT 31/16 A2995 RMK A01 T03130157  RH  039%=      5-min Rain = 0
KAI1 260030Z 15024KT 31/16 A2995 RMK A01 T03140156  RH  039%=      5-min Rain = 0
KAI1 260031Z 15024KT 32/15 A2995 RMK A01 T03150154  RH  038%=      5-min Rain = 0
KAI1 260032Z 16023KT 31/15 A2995 RMK A01 T03140154  RH  038%=      5-min Rain = 0
KAI1 260033Z 16022KT 32/15 A2996 RMK A01 T03150154  RH  038%=      5-min Rain = 0
KAI1 260034Z 16022KT 32/16 A2996 RMK A01 T03150156  RH  038%=      5-min Rain = 0
KAI1 260035Z 16023KT 32/15 A2996 RMK A01 T03160154  RH  038%=      5-min Rain = 0
KAI1 260036Z 15019G25KT 32/15 A2996 RMK A01 T03160153  RH  038%=      5-min Rain = 0
KAI1 260037Z 15024KT 32/15 A2996 RMK A01 T03160152  RH  037%=      5-min Rain = 0
KAI1 260038Z 15023KT 32/15 A2996 RMK A01 T03150152  RH  037%=      5-min Rain = 0
KAI1 260039Z 15022KT 31/15 A2996 RMK A01 T03130151  RH  037%=      5-min Rain = 0
KAI1 260040Z 15023KT 31/15 A2996 RMK A01 T03130152  RH  038%=      5-min Rain = 0
KAI1 260041Z 15022KT 31/15 A2996 RMK A01 T03130152  RH  038%=      5-min Rain = 0
KAI1 260042Z 14020G25KT 31/15 A2996 RMK A01 T03130154  RH  038%=      5-min Rain = 0
KAI1 260043Z 14021KT 31/15 A2996 RMK A01 T03120154  RH  039%=      5-min Rain = 0
KAI1 260044Z 14020KT 31/16 A2996 RMK A01 T03100155  RH  039%=      5-min Rain = 0
KAI1 260045Z 14023KT 31/16 A2996 RMK A01 T03090155  RH  039%=      5-min Rain = 0
KAI1 260046Z 15022KT 31/16 A2996 RMK A01 T03070155  RH  040%=      5-min Rain = 0
KAI1 260047Z 15021KT 31/16 A2997 RMK A01 T03060155  RH  040%=      5-min Rain = 0
KAI1 260048Z 14021KT 31/16 A2997 RMK A01 T03070155  RH  040%=      5-min Rain = 0
KAI1 260049Z 15022KT 31/16 A2997 RMK A01 T03060155  RH  040%=      5-min Rain = 0
KAI1 260050Z 15022G27KT 31/16 A2997 RMK A01 T03060155  RH  040%=      5-min Rain = 0
KAI1 260051Z 14021KT 31/16 A2997 RMK A01 T03060155  RH  040%=      5-min Rain = 0
KAI1 260052Z 14023KT 31/16 A2997 RMK A01 T03050155  RH  040%=      5-min Rain = 0
KAI1 260053Z 14020KT 31/16 A2997 RMK A01 T03050155  RH  040%=      5-min Rain = 0
KAI1 260054Z 15019KT 31/16 A2997 RMK A01 T03050155  RH  040%=      5-min Rain = 0
KAI1 260055Z 15022KT 31/15 A2997 RMK A01 T03050154  RH  040%=      5-min Rain = 0
KAI1 260056Z 15021KT 31/16 A2997 RMK A01 T03050156  RH  040%=      5-min Rain = 0
KAI1 260057Z 15023KT 31/16 A2997 RMK A01 T03050157  RH  041%=      5-min Rain = 0
KAI1 260058Z 15021KT 30/16 A2998 RMK A01 T03030157  RH  041%=      5-min Rain = 0
KAI1 260059Z 15020KT 30/16 A2998 RMK A01 T03020156  RH  041%=      5-min Rain = 0
KAI1 260100Z 14015KT 30/16 A2998 RMK A01 T03010157  RH  042%=      5-min Rain = 0
KAI1 260101Z 14019KT 30/16 A2998 RMK A01 T03000157  RH  042%=      5-min Rain = 0
KAI1 260102Z 15019KT 30/16 A2998 RMK A01 T02990156  RH  042%=      5-min Rain = 0
KAI1 260103Z 14019KT 30/16 A2999 RMK A01 T02990155  RH  042%=      5-min Rain = 0
KAI1 260104Z 14017KT 30/16 A2999 RMK A01 T02990156  RH  042%=      5-min Rain = 0
KAI1 260105Z 14017KT 30/16 A2999 RMK A01 T02980156  RH  042%=      5-min Rain = 0
KAI1 260106Z 13016KT 30/16 A30 RMK A01 T02980156  RH  042%=      5-min Rain = 0
KAI1 260107Z 12017KT 30/16 A3001 RMK A01 T02970157  RH  043%=      5-min Rain = 0
KAI1 260108Z 12018KT 30/16 A3001 RMK A01 T02960156  RH  043%=      5-min Rain = 0
KAI1 260109Z 11018KT 30/16 A3002 RMK A01 T02960156  RH  043%=      5-min Rain = 0
KAI1 260110Z 09014KT 30/16 A3003 RMK A01 T02960156  RH  043%=      5-min Rain = 0
KAI1 260111Z 06016G26KT 29/16 A3003 RMK A01 T02940155  RH  043%=      5-min Rain = 0
KAI1 260112Z 07025G31KT 28/15 A3004 RMK A01 T02790145  RH  044%=      5-min Rain = 0
KAI1 260113Z 07020KT 26/14 A3004 RMK A01 T02610141  RH  048%=      5-min Rain = 0
KAI1 260114Z 07020G26KT 25/14 A3004 RMK A01 T02520140  RH  050%=      5-min Rain = 0
KAI1 260115Z 06021G26KT 25/14 A3004 RMK A01 T02460140  RH  052%=      5-min Rain = 0
KAI1 260116Z 07019KT 24/14 A3004 RMK A01 T02430139  RH  052%=      5-min Rain = 0
KAI1 260117Z 06022G27KT 24/14 A3004 RMK A01 T02430140  RH  053%=      5-min Rain = 0
KAI1 260118Z 05022KT 24/14 A3004 RMK A01 T02430139  RH  052%=      5-min Rain = 0
KAI1 260119Z 05019KT 24/14 A3004 RMK A01 T02420137  RH  052%=      5-min Rain = 0
KAI1 260120Z 06017G22KT 24/14 A3005 RMK A01 T02410137  RH  052%=      5-min Rain = 0
KAI1 260121Z 05016G21KT 24/14 A3004 RMK A01 T02400136  RH  052%=      5-min Rain = 0
KAI1 260122Z 05019G24KT 24/13 A3004 RMK A01 T02380132  RH  052%=      5-min Rain = 0
KAI1 260123Z 05019KT 24/13 A3005 RMK A01 T02360131  RH  052%=      5-min Rain = 0
KAI1 260124Z 03019KT 23/13 A3005 RMK A01 T02340129  RH  052%=      5-min Rain = 0
KAI1 260125Z 04017KT 23/13 A3005 RMK A01 T02330129  RH  052%=      5-min Rain = 0
KAI1 260126Z 04017KT 23/13 A3005 RMK A01 T02320129  RH  052%=      5-min Rain = 0
KAI1 260127Z 04023KT 23/13 A3005 RMK A01 T02330129  RH  052%=      5-min Rain = 0
KAI1 260128Z 04022G27KT 23/13 A3006 RMK A01 T02330129  RH  052%=      5-min Rain = 0
KAI1 260129Z 04025KT 23/13 A3007 RMK A01 T02330129  RH  052%=      5-min Rain = 0
KAI1 260130Z 04022G28KT 23/13 A3007 RMK A01 T02320128  RH  052%=      5-min Rain = 0
KAI1 260131Z 04020KT 23/13 A3007 RMK A01 T02320128  RH  052%=      5-min Rain = 0
KAI1 260132Z 03020KT 23/13 A3007 RMK A01 T02310128  RH  052%=      5-min Rain = 0
KAI1 260133Z 03024KT 23/13 A3007 RMK A01 T02310127  RH  052%=      5-min Rain = 0
KAI1 260134Z 04025KT 23/13 A3007 RMK A01 T02290127  RH  052%=      5-min Rain = 0
KAI1 260135Z 03024KT 23/13 A3007 RMK A01 T02280127  RH  053%=      5-min Rain = 0
KAI1 260136Z 04022KT 23/13 A3007 RMK A01 T02250127  RH  054%=      5-min Rain = 0
KAI1 260137Z 04022KT 22/13 A3007 RMK A01 T02220127  RH  055%=      5-min Rain = 0
KAI1 260138Z 04024G31KT 22/13 A3007 RMK A01 T02200126  RH  055%=      5-min Rain = 0
KAI1 260139Z 05027KT 22/13 A3007 RMK A01 T02180126  RH  056%=      5-min Rain = 0
KAI1 260140Z 04022KT 22/13 A3007 RMK A01 T02160128  RH  057%=      5-min Rain = 0
KAI1 260141Z 04019KT 21/13 A3007 RMK A01 T02140129  RH  058%=      5-min Rain = 0
KAI1 260142Z 05020KT 21/13 A3007 RMK A01 T02120130  RH  059%=      5-min Rain = 0
KAI1 260143Z 05018KT 21/13 A3006 RMK A01 T02110130  RH  060%=      5-min Rain = 0
KAI1 260144Z 06019KT 21/13 A3006 RMK A01 T02100130  RH  060%=      5-min Rain = 0
KAI1 260145Z 06019KT 21/13 A3006 RMK A01 T02090130  RH  061%=      5-min Rain = 0
KAI1 260146Z 07017KT 21/13 A3006 RMK A01 T02090130  RH  061%=      5-min Rain = 0
KAI1 260147Z 07017KT 21/13 A3006 RMK A01 T02090130  RH  061%=      5-min Rain = 0
KAI1 260148Z 07015KT 21/13 A3006 RMK A01 T02090130  RH  060%=      5-min Rain = 0
KAI1 260149Z 06016KT 21/13 A3006 RMK A01 T02100129  RH  060%=      5-min Rain = 0
KAI1 260150Z 06014KT 21/13 A3007 RMK A01 T02100129  RH  060%=      5-min Rain = 0
KAI1 260151Z 04015KT 21/13 A3007 RMK A01 T02110129  RH  059%=      5-min Rain = 0
KAI1 260152Z 03013KT 21/13 A3008 RMK A01 T02120129  RH  059%=      5-min Rain = 0
KAI1 260153Z 02015G20KT 21/13 A3008 RMK A01 T02130129  RH  059%=      5-min Rain = 0
KAI1 260154Z 02019KT 21/13 A3009 RMK A01 T02140130  RH  059%=      5-min Rain = 0
KAI1 260155Z 01022KT 21/13 A3009 RMK A01 T02130131  RH  059%=      5-min Rain = 0
KAI1 260156Z 01023KT 21/13 A3009 RMK A01 T02130131  RH  060%=      5-min Rain = 0
KAI1 260157Z 01025KT 21/13 A3009 RMK A01 T02130131  RH  060%=      5-min Rain = 0
KAI1 260158Z 02026KT 21/13 A3009 RMK A01 T02120131  RH  060%=      5-min Rain = 0
KAI1 260159Z 01025KT 21/13 A3009 RMK A01 T02130131  RH  059%=      5-min Rain = 0
KAI1 260200Z 01025KT 22/13 A301 RMK A01 T02150131  RH  059%=      5-min Rain = 0
KAI1 260201Z 02025KT 22/13 A301 RMK A01 T02170130  RH  058%=      5-min Rain = 0
KAI1 260202Z 02020KT 22/13 A301 RMK A01 T02200130  RH  057%=      5-min Rain = 0
KAI1 260203Z 03020KT 22/13 A3009 RMK A01 T02230131  RH  056%=      5-min Rain = 0
KAI1 260204Z 03022G27KT 23/13 A301 RMK A01 T02270130  RH  054%=      5-min Rain = 0
KAI1 260205Z 03024KT 23/13 A3009 RMK A01 T02300134  RH  054%=      5-min Rain = 0
KAI1 260206Z 03021KT 23/14 A3009 RMK A01 T02310135  RH  055%=      5-min Rain = 0
KAI1 260207Z 04024KT 23/14 A3009 RMK A01 T02310137  RH  055%=      5-min Rain = 0
KAI1 260208Z 04026KT 23/14 A3009 RMK A01 T02310137  RH  055%=      5-min Rain = 0
KAI1 260209Z 04025G30KT 23/14 A3009 RMK A01 T02310135  RH  055%=      5-min Rain = 0
KAI1 260210Z 04023KT 23/14 A3009 RMK A01 T02310138  RH  056%=      5-min Rain = 0
KAI1 260211Z 04023KT 23/14 A3009 RMK A01 T02310140  RH  056%=      5-min Rain = 0
KAI1 260212Z 05023KT 23/14 A3009 RMK A01 T02310140  RH  056%=      5-min Rain = 0
KAI1 260213Z 05020KT 23/14 A3009 RMK A01 T02310139  RH  056%=      5-min Rain = 0
KAI1 260214Z 05022KT 23/14 A3009 RMK A01 T02320137  RH  055%=      5-min Rain = 0
KAI1 260215Z 05024KT 23/14 A3009 RMK A01 T02310135  RH  055%=      5-min Rain = 0
KAI1 260216Z 05022KT 23/13 A301 RMK A01 T02320134  RH  054%=      5-min Rain = 0
KAI1 260217Z 05022G27KT 23/13 A301 RMK A01 T02340134  RH  053%=      5-min Rain = 0
KAI1 260218Z 05028G33KT 24/13 A301 RMK A01 T02350133  RH  053%=      5-min Rain = 0
KAI1 260219Z 05028KT 24/13 A301 RMK A01 T02350132  RH  052%=      5-min Rain = 0
KAI1 260220Z 05025G31KT 23/13 A3009 RMK A01 T02330132  RH  053%=      5-min Rain = 0
KAI1 260221Z 05025KT 23/13 A3009 RMK A01 T02330130  RH  053%=      5-min Rain = 0
KAI1 260222Z 05025KT 23/13 A3009 RMK A01 T02320129  RH  052%=      5-min Rain = 0
KAI1 260223Z 06025G30KT 23/13 A3009 RMK A01 T02320129  RH  052%=      5-min Rain = 0
KAI1 260224Z 06027G33KT 23/13 A3009 RMK A01 T02320129  RH  052%=      5-min Rain = 0
KAI1 260225Z 05027KT 23/13 A3009 RMK A01 T02310129  RH  053%=      5-min Rain = 0
KAI1 260226Z 06026KT 23/13 A3009 RMK A01 T02300129  RH  053%=      5-min Rain = 0
KAI1 260227Z 06025KT 23/13 A3009 RMK A01 T02290130  RH  054%=      5-min Rain = 0
KAI1 260228Z 06022G27KT 23/13 A3009 RMK A01 T02290131  RH  054%=      5-min Rain = 0
KAI1 260229Z 06021G26KT 23/13 A3009 RMK A01 T02290132  RH  054%=      5-min Rain = 0
KAI1 260230Z 06021KT 23/13 A3009 RMK A01 T02290132  RH  054%=      5-min Rain = 0
KAI1 260231Z 06022KT 23/13 A3009 RMK A01 T02300133  RH  054%=      5-min Rain = 0
KAI1 260232Z 06022KT 23/13 A3009 RMK A01 T02310134  RH  054%=      5-min Rain = 0
KAI1 260233Z 06022G29KT 23/13 A3009 RMK A01 T02320134  RH  054%=      5-min Rain = 0
KAI1 260234Z 06023KT 23/13 A3009 RMK A01 T02320134  RH  054%=      5-min Rain = 0
KAI1 260235Z 07022G27KT 23/13 A3009 RMK A01 T02330134  RH  054%=      5-min Rain = 0
KAI1 260236Z 06022KT 23/13 A3009 RMK A01 T02330134  RH  054%=      5-min Rain = 0
KAI1 260237Z 06020KT 23/14 A3009 RMK A01 T02330135  RH  054%=      5-min Rain = 0
KAI1 260238Z 05021KT 23/14 A3009 RMK A01 T02330136  RH  054%=      5-min Rain = 0
KAI1 260239Z 06026KT 23/14 A3009 RMK A01 T02330138  RH  055%=      5-min Rain = 0
KAI1 260240Z 05027KT 23/14 A3009 RMK A01 T02330140  RH  056%=      5-min Rain = 0
KAI1 260241Z 06025KT 23/14 A3009 RMK A01 T02320141  RH  056%=      5-min Rain = 0
KAI1 260242Z 06022KT 23/14 A301 RMK A01 T02310142  RH  057%=      5-min Rain = 0
KAI1 260243Z 06023KT 23/14 A301 RMK A01 T02300142  RH  058%=      5-min Rain = 0
KAI1 260244Z 06024KT 23/14 A301 RMK A01 T02290142  RH  058%=      5-min Rain = 0
KAI1 260245Z 06022G29KT 23/14 A301 RMK A01 T02290142  RH  058%=      5-min Rain = 0
KAI1 260246Z 06022G28KT 23/14 A301 RMK A01 T02290140  RH  057%=      5-min Rain = 0
KAI1 260247Z 06024KT 23/14 A301 RMK A01 T02290138  RH  056%=      5-min Rain = 0
KAI1 260248Z 06022KT 23/14 A301 RMK A01 T02310137  RH  056%=      5-min Rain = 0
KAI1 260249Z 06023G30KT 23/14 A301 RMK A01 T02320136  RH  055%=      5-min Rain = 0
KAI1 260250Z 06023G29KT 23/14 A301 RMK A01 T02340135  RH  054%=      5-min Rain = 0
KAI1 260251Z 06025KT 24/14 A301 RMK A01 T02360135  RH  053%=      5-min Rain = 0
KAI1 260252Z 06024KT 24/13 A301 RMK A01 T02390134  RH  052%=      5-min Rain = 0
KAI1 260253Z 06025KT 24/13 A301 RMK A01 T02420134  RH  051%=      5-min Rain = 0
KAI1 260254Z 06022KT 24/13 A301 RMK A01 T02430134  RH  050%=      5-min Rain = 0
KAI1 260255Z 06019KT 24/13 A301 RMK A01 T02430134  RH  050%=      5-min Rain = 0
KAI1 260256Z 06020G26KT 24/13 A301 RMK A01 T02420134  RH  051%=      5-min Rain = 0
KAI1 260257Z 06022KT 24/13 A301 RMK A01 T02410134  RH  051%=      5-min Rain = 0
KAI1 260258Z 06024G31KT 24/13 A301 RMK A01 T02400133  RH  051%=      5-min Rain = 0
KAI1 260259Z 06028G34KT 24/13 A301 RMK A01 T02400131  RH  051%=      5-min Rain = 0
KAI1 260300Z 06029KT 24/13 A3011 RMK A01 T02400129  RH  050%=      5-min Rain = 0
KAI1 260301Z 06025G30KT 24/13 A3011 RMK A01 T02400128  RH  049%=      5-min Rain = 0
KAI1 260302Z 07024G29KT 24/13 A3011 RMK A01 T02390128  RH  050%=      5-min Rain = 0
KAI1 260303Z 07024KT 24/13 A3011 RMK A01 T02390128  RH  050%=      5-min Rain = 0
KAI1 260304Z 07025KT 24/13 A3011 RMK A01 T02390128  RH  050%=      5-min Rain = 0
KAI1 260305Z 07024KT 24/13 A3011 RMK A01 T02390128  RH  050%=      5-min Rain = 0
KAI1 260306Z 07020KT 24/13 A3011 RMK A01 T02390128  RH  050%=      5-min Rain = 0
KAI1 260307Z 07019KT 24/13 A3011 RMK A01 T02380129  RH  050%=      5-min Rain = 0
KAI1 260308Z 08019KT 24/13 A3011 RMK A01 T02360129  RH  051%=      5-min Rain = 0
KAI1 260309Z 08020KT 24/13 A3011 RMK A01 T02360130  RH  052%=      5-min Rain = 0
KAI1 260310Z 07020G25KT 24/13 A3011 RMK A01 T02350131  RH  052%=      5-min Rain = 0
KAI1 260311Z 07023G28KT 23/13 A3011 RMK A01 T02340131  RH  052%=      5-min Rain = 0
KAI1 260312Z 08023G28KT 23/13 A3011 RMK A01 T02340131  RH  052%=      5-min Rain = 0
KAI1 260313Z 08021KT 23/13 A3011 RMK A01 T02340131  RH  052%=      5-min Rain = 0
KAI1 260314Z 08021KT 24/13 A3011 RMK A01 T02350132  RH  052%=      5-min Rain = 0
KAI1 260315Z 09018KT 23/13 A3011 RMK A01 T02340132  RH  052%=      5-min Rain = 0
KAI1 260316Z 09019KT 23/13 A3011 RMK A01 T02340132  RH  053%=      5-min Rain = 0
KAI1 260317Z 09019KT 23/13 A3011 RMK A01 T02340132  RH  053%=      5-min Rain = 0
KAI1 260318Z 09018G23KT 23/13 A3011 RMK A01 T02340131  RH  052%=      5-min Rain = 0
KAI1 260319Z 09020KT 23/13 A3011 RMK A01 T02340131  RH  052%=      5-min Rain = 0
KAI1 260320Z 09022KT 23/13 A3011 RMK A01 T02340131  RH  052%=      5-min Rain = 0
KAI1 260321Z 09019KT 23/13 A3011 RMK A01 T02340131  RH  052%=      5-min Rain = 0
KAI1 260322Z 09020KT 23/13 A3011 RMK A01 T02340132  RH  053%=      5-min Rain = 0
KAI1 260323Z 09019KT 23/13 A3011 RMK A01 T02340132  RH  053%=      5-min Rain = 0
KAI1 260324Z 09020G25KT 23/13 A3011 RMK A01 T02330131  RH  053%=      5-min Rain = 0
KAI1 260325Z 08020KT 23/13 A3011 RMK A01 T02340132  RH  053%=      5-min Rain = 0
KAI1 260326Z 09021KT 23/13 A3011 RMK A01 T02340132  RH  053%=      5-min Rain = 0
KAI1 260327Z 09019G24KT 23/13 A3011 RMK A01 T02330133  RH  053%=      5-min Rain = 0
KAI1 260328Z 09018KT 23/13 A301 RMK A01 T02330134  RH  054%=      5-min Rain = 0
KAI1 260329Z 09019KT 23/13 A301 RMK A01 T02320134  RH  054%=      5-min Rain = 0
KAI1 260330Z 10018KT 23/14 A301 RMK A01 T02320135  RH  054%=      5-min Rain = 0
KAI1 260331Z 09018KT 23/14 A301 RMK A01 T02310136  RH  055%=      5-min Rain = 0
KAI1 260332Z 09018KT 23/14 A301 RMK A01 T02310136  RH  055%=      5-min Rain = 0
KAI1 260333Z 09019KT 23/14 A301 RMK A01 T02310136  RH  055%=      5-min Rain = 0
KAI1 260334Z 10020KT 23/14 A301 RMK A01 T02310136  RH  055%=      5-min Rain = 0
KAI1 260335Z 10020KT 23/14 A3009 RMK A01 T02310136  RH  055%=      5-min Rain = 0
KAI1 260336Z 09025KT 23/14 A3009 RMK A01 T02320137  RH  055%=      5-min Rain = 0
KAI1 260337Z 10025KT 23/14 A3009 RMK A01 T02340138  RH  055%=      5-min Rain = 0
KAI1 260338Z 10025KT 24/14 A3009 RMK A01 T02360138  RH  054%=      5-min Rain = 0
KAI1 260339Z 10024KT 24/14 A3009 RMK A01 T02360138  RH  054%=      5-min Rain = 0
KAI1 260340Z 10024G31KT 24/14 A3008 RMK A01 T02360138  RH  054%=      5-min Rain = 0
KAI1 260341Z 10023KT 24/14 A3008 RMK A01 T02370139  RH  054%=      5-min Rain = 0
KAI1 260342Z 11024KT 24/14 A3008 RMK A01 T02380139  RH  054%=      5-min Rain = 0
KAI1 260343Z 11024KT 24/14 A3008 RMK A01 T02390140  RH  054%=      5-min Rain = 0
KAI1 260344Z 11023G28KT 24/14 A3008 RMK A01 T02400139  RH  053%=      5-min Rain = 0
KAI1 260345Z 12024KT 24/14 A3007 RMK A01 T02400139  RH  053%=      5-min Rain = 0
KAI1 260346Z 11024KT 24/14 A3007 RMK A01 T02410139  RH  053%=      5-min Rain = 0
KAI1 260347Z 11023KT 24/14 A3007 RMK A01 T02420138  RH  052%=      5-min Rain = 0
KAI1 260348Z 12024G29KT 24/14 A3007 RMK A01 T02420138  RH  052%=      5-min Rain = 0
KAI1 260349Z 12021KT 24/14 A3007 RMK A01 T02430137  RH  052%=      5-min Rain = 0
KAI1 260350Z 12023KT 24/14 A3007 RMK A01 T02430137  RH  051%=      5-min Rain = 0
KAI1 260351Z 12022KT 24/14 A3007 RMK A01 T02440137  RH  051%=      5-min Rain = 0
KAI1 260352Z 12023KT 25/14 A3007 RMK A01 T02460138  RH  051%=      5-min Rain = 0
KAI1 260353Z 13021G26KT 25/14 A3007 RMK A01 T02470136  RH  050%=      5-min Rain = 0
KAI1 260354Z 13025KT 25/14 A3007 RMK A01 T02470135  RH  050%=      5-min Rain = 0
KAI1 260355Z 13023KT 25/13 A3007 RMK A01 T02460134  RH  049%=      5-min Rain = 0
KAI1 260356Z 13023KT 25/13 A3007 RMK A01 T02460132  RH  049%=      5-min Rain = 0
KAI1 260357Z 13021KT 25/13 A3007 RMK A01 T02450132  RH  049%=      5-min Rain = 0
KAI1 260358Z 13019G27KT 24/13 A3007 RMK A01 T02440132  RH  050%=      5-min Rain = 0
KAI1 260359Z 14022KT 24/13 A3007 RMK A01 T02440133  RH  050%=      5-min Rain = 0
KAI1 260400Z 14021G27KT 24/13 A3007 RMK A01 T02440133  RH  050%=      5-min Rain = 0
KAI1 260401Z 13023KT 24/13 A3007 RMK A01 T02420129  RH  049%=      5-min Rain = 0
KAI1 260402Z 13023G30KT 24/13 A3007 RMK A01 T02400129  RH  050%=      5-min Rain = 0
KAI1 260403Z 13022KT 24/13 A3007 RMK A01 T02400131  RH  051%=      5-min Rain = 0
KAI1 260404Z 14021KT 24/13 A3007 RMK A01 T02400132  RH  051%=      5-min Rain = 0
KAI1 260405Z 14020KT 24/13 A3007 RMK A01 T02400132  RH  051%=      5-min Rain = 0
KAI1 260406Z 14018KT 24/13 A3007 RMK A01 T02390131  RH  051%=      5-min Rain = 0
KAI1 260407Z 14017KT 24/13 A3007 RMK A01 T02380130  RH  051%=      5-min Rain = 0
KAI1 260408Z 14019KT 24/13 A3007 RMK A01 T02370129  RH  051%=      5-min Rain = 0
KAI1 260409Z 13017KT 24/13 A3007 RMK A01 T02370129  RH  051%=      5-min Rain = 0
KAI1 260410Z 13019KT 24/13 A3008 RMK A01 T02360128  RH  051%=      5-min Rain = 0
KAI1 260411Z 13017G22KT 24/13 A3008 RMK A01 T02360127  RH  050%=      5-min Rain = 0
KAI1 260412Z 14017KT 24/13 A3008 RMK A01 T02360126  RH  050%=      5-min Rain = 0
KAI1 260413Z 13019KT 24/13 A3008 RMK A01 T02360126  RH  050%=      5-min Rain = 0
KAI1 260414Z 13015KT 24/13 A3008 RMK A01 T02360127  RH  050%=      5-min Rain = 0
KAI1 260415Z 12015KT 24/13 A3009 RMK A01 T02350128  RH  051%=      5-min Rain = 0
KAI1 260416Z 13015KT 23/13 A3009 RMK A01 T02340127  RH  051%=      5-min Rain = 0
KAI1 260417Z 12017KT 23/13 A3009 RMK A01 T02340128  RH  051%=      5-min Rain = 0
KAI1 260418Z 12019G25KT 24/13 A3009 RMK A01 T02350128  RH  051%=      5-min Rain = 0
KAI1 260419Z 12017KT 24/13 A3009 RMK A01 T02360128  RH  051%=      5-min Rain = 0
KAI1 260420Z 12015KT 24/13 A3009 RMK A01 T02370128  RH  050%=      5-min Rain = 0
KAI1 260421Z 12018KT 24/13 A3009 RMK A01 T02370127  RH  050%=      5-min Rain = 0
KAI1 260422Z 11015G20KT 24/13 A3009 RMK A01 T02360125  RH  050%=      5-min Rain = 0
KAI1 260423Z 11016KT 24/13 A301 RMK A01 T02360125  RH  050%=      5-min Rain = 0
KAI1 260424Z 11017KT 24/13 A301 RMK A01 T02350125  RH  050%=      5-min Rain = 0
KAI1 260425Z 11018KT 24/13 A301 RMK A01 T02350125  RH  050%=      5-min Rain = 0
KAI1 260426Z 11017KT 24/13 A301 RMK A01 T02350125  RH  050%=      5-min Rain = 0
KAI1 260427Z 11016KT 24/13 A301 RMK A01 T02350126  RH  050%=      5-min Rain = 0
KAI1 260428Z 11016KT 23/13 A301 RMK A01 T02340126  RH  050%=      5-min Rain = 0
KAI1 260429Z 12016G21KT 23/13 A301 RMK A01 T02340126  RH  051%=      5-min Rain = 0
KAI1 260430Z 11015KT 23/13 A301 RMK A01 T02340127  RH  051%=      5-min Rain = 0
KAI1 260431Z 12016KT 23/13 A301 RMK A01 T02340127  RH  051%=      5-min Rain = 0
KAI1 260432Z 12015KT 23/13 A301 RMK A01 T02340127  RH  051%=      5-min Rain = 0
KAI1 260433Z 12016KT 23/13 A301 RMK A01 T02340128  RH  051%=      5-min Rain = 0
KAI1 260434Z 12015KT 23/13 A301 RMK A01 T02340128  RH  051%=      5-min Rain = 0
KAI1 260435Z 12017KT 23/13 A3011 RMK A01 T02340127  RH  051%=      5-min Rain = 0
KAI1 260436Z 12014KT 23/13 A3011 RMK A01 T02340128  RH  051%=      5-min Rain = 0
KAI1 260437Z 11015KT 23/13 A3011 RMK A01 T02340127  RH  051%=      5-min Rain = 0
KAI1 260438Z 11017KT 23/13 A3011 RMK A01 T02340126  RH  051%=      5-min Rain = 0
KAI1 260439Z 11015KT 23/13 A3011 RMK A01 T02340126  RH  051%=      5-min Rain = 0
KAI1 260440Z 11017KT 23/13 A3012 RMK A01 T02340126  RH  051%=      5-min Rain = 0
KAI1 260441Z 11015KT 23/13 A3012 RMK A01 T02340126  RH  051%=      5-min Rain = 0
KAI1 260442Z 11015KT 23/13 A3012 RMK A01 T02330126  RH  051%=      5-min Rain = 0
KAI1 260443Z 11015KT 23/13 A3012 RMK A01 T02330126  RH  051%=      5-min Rain = 0
KAI1 260444Z 11014KT 23/13 A3012 RMK A01 T02320127  RH  051%=      5-min Rain = 0
KAI1 260445Z 10012KT 23/13 A3012 RMK A01 T02310127  RH  052%=      5-min Rain = 0
KAI1 260446Z 10012KT 23/13 A3012 RMK A01 T02300128  RH  053%=      5-min Rain = 0
KAI1 260447Z 10011KT 23/13 A3012 RMK A01 T02290128  RH  053%=      5-min Rain = 0
KAI1 260448Z 10011KT 23/13 A3012 RMK A01 T02270128  RH  053%=      5-min Rain = 0
KAI1 260449Z 10010KT 23/13 A3012 RMK A01 T02260129  RH  054%=      5-min Rain = 0
KAI1 260450Z 10010KT 23/13 A3012 RMK A01 T02250129  RH  054%=      5-min Rain = 0
KAI1 260451Z 10010KT 23/13 A3012 RMK A01 T02250129  RH  055%=      5-min Rain = 0
KAI1 260452Z 11010KT 23/13 A3012 RMK A01 T02250129  RH  055%=      5-min Rain = 0
KAI1 260453Z 11009KT 23/13 A3012 RMK A01 T02250128  RH  054%=      5-min Rain = 0
KAI1 260454Z 11009KT 23/13 A3012 RMK A01 T02250128  RH  054%=      5-min Rain = 0
KAI1 260455Z 12008KT 23/13 A3012 RMK A01 T02250127  RH  054%=      5-min Rain = 0
KAI1 260456Z 12008KT 23/13 A3012 RMK A01 T02250127  RH  054%=      5-min Rain = 0
KAI1 260457Z 12008KT 23/13 A3013 RMK A01 T02250127  RH  054%=      5-min Rain = 0
KAI1 260458Z 12009KT 23/13 A3013 RMK A01 T02250127  RH  054%=      5-min Rain = 0
KAI1 260459Z 11010KT 23/13 A3013 RMK A01 T02250127  RH  054%=      5-min Rain = 0

Page generated in 0.036 seconds.